Darstellungsparameter: Aktuell verwendete Einstellungen:
Skalierung der Graphiken ... ?
xyx+y,   Skalierungsfaktor:      Skalierung: Modus: x, Faktor: 1
Darstellungszeitraum ... ?
Vom - - bis: - -   Zeitraum: 03.09.2020 - 01.10.2020
Min/Max/Avg-Anzeige ... ?
Zeige MMA aktuell
Zeige MMA Monat
Zeige MMA alles
Zeige --A aktuell
Zeige --A Monat
Zeige --A alles
Keine MMA-Anzeige
MMA:
Keine MMA-Graphiken
MMA-Basis: 03.09.2020 - 01.10.2020
Quicknavigation für Darstellung... ?
Tage:      1T, 2T, 3T, 5T -1T -2T -3T -5T +1T +2T +3T +5T
Wochen: 1W, 2W, 3W -1W -2W -3W +1W +2W +3W
Monate: 1M, 3M, 6M -1M -3M -6M +1M +3M +6M
Jahre:    1J, 3J, 5J, 10J -1J -3J -5J -10J +1J +3J +5J +10J
Nutze für die Darstellung ... ?
Originaldaten oder ...
Mittelwerte Minima Maxima auf...
Stundenbasis Tagesbasis Wochenbasis
Monatsbasis Jahresbasis      Datenbasis: Mittelwerte auf Stundenbasis
Darstellen als:
Statistik (Auto) Statistik J:M      Darstellung:
Zur Graphik,    zurück zur Übersicht aller Sensoren.
 
Tabellarische Datenbersicht: ?
 
Sensor: Nr:Datum:Temp:Feuchte:
Aussen-T/F 1 03-09-2020 00:00:00 11.63333 C 38.5000 %
2 03-09-2020 01:00:00 10.8 C 40.1667 %
3 03-09-2020 02:00:00 9.95 C 42.5000 %
4 03-09-2020 03:00:00 9.95 C 42.5000 %
5 03-09-2020 04:00:00 9.73333 C 44.3333 %
6 03-09-2020 05:00:00 9.71667 C 43.8333 %
7 03-09-2020 06:00:00 10.03333 C 43.1667 %
8 03-09-2020 07:00:00 10.6 C 42.0000 %
9 03-09-2020 08:00:00 11.98333 C 38.0000 %
10 03-09-2020 09:00:00 13.76667 C 35.6667 %
11 03-09-2020 10:00:00 16.35 C 32.1667 %
12 03-09-2020 11:00:00 19.43333 C 28.5000 %
13 03-09-2020 12:00:00 21 C 26.1667 %
14 03-09-2020 13:00:00 18.4 C 29.8333 %
15 03-09-2020 14:00:00 17.76667 C 31.6667 %
16 03-09-2020 15:00:00 17.48333 C 33.0000 %
17 03-09-2020 16:00:00 15.66667 C 39.6667 %
18 03-09-2020 17:00:00 16 C 39.1667 %
19 03-09-2020 18:00:00 16.33333 C 39.6667 %
20 03-09-2020 19:00:00 15.48333 C 41.8333 %
21 03-09-2020 20:00:00 15.2 C 41.3333 %
22 03-09-2020 21:00:00 15.41667 C 39.8333 %
23 03-09-2020 22:00:00 15.83333 C 39.5000 %
24 03-09-2020 23:00:00 15.71667 C 40.0000 %
25 04-09-2020 00:00:00 15.73333 C 40.5000 %
Sensor: Nr:Datum:Temp:Feuchte:
Aussen-T/F 26 04-09-2020 01:00:00 15.7 C 40.1667 %
27 04-09-2020 02:00:00 16.18333 C 37.8333 %
28 04-09-2020 03:00:00 16.66667 C 37.3333 %
29 04-09-2020 04:00:00 16.58333 C 37.3333 %
30 04-09-2020 05:00:00 16.46667 C 37.8333 %
31 04-09-2020 06:00:00 16.71667 C 36.6667 %
32 04-09-2020 07:00:00 16.76667 C 36.8333 %
33 04-09-2020 08:00:00 17.56667 C 35.5000 %
34 04-09-2020 09:00:00 19.13333 C 32.6667 %
35 04-09-2020 10:00:00 19.9 C 32.1667 %
36 04-09-2020 11:00:00 21.76667 C 29.1667 %
37 04-09-2020 12:00:00 23.73333 C 25.8333 %
38 04-09-2020 13:00:00 26.05 C 23.8333 %
39 04-09-2020 14:00:00 27.25 C 22.3333 %
40 04-09-2020 15:00:00 26.93333 C 22.0000 %
41 04-09-2020 16:00:00 28.51667 C 20.8333 %
42 04-09-2020 17:00:00 29.81667 C 21.0000 %
43 04-09-2020 18:00:00 25.25 C 25.0000 %
44 04-09-2020 19:00:00 23.16667 C 28.6667 %
45 04-09-2020 20:00:00 20.28333 C 35.3333 %
46 04-09-2020 21:00:00 20.08333 C 35.1667 %
47 04-09-2020 22:00:00 19.06667 C 37.1667 %
48 04-09-2020 23:00:00 18.68333 C 38.0000 %
49 05-09-2020 00:00:00 17.21667 C 40.3333 %
50 05-09-2020 01:00:00 15.88333 C 41.8333 %
Sensor: Nr:Datum:Temp:Feuchte:
Aussen-T/F 51 05-09-2020 02:00:00 15.45 C 42.0000 %
52 05-09-2020 03:00:00 15.96667 C 41.5000 %
53 05-09-2020 04:00:00 16.61667 C 41.0000 %
54 05-09-2020 05:00:00 16.83333 C 41.1667 %
55 05-09-2020 06:00:00 16.61667 C 36.8333 %
56 05-09-2020 07:00:00 15.75 C 34.8333 %
57 05-09-2020 08:00:00 15.58333 C 35.0000 %
58 05-09-2020 09:00:00 16.56667 C 33.5000 %
59 05-09-2020 10:00:00 17.15 C 32.6667 %
60 05-09-2020 11:00:00 18.85 C 30.5000 %
61 05-09-2020 12:00:00 19.13333 C 29.6667 %
62 05-09-2020 13:00:00 19.68333 C 28.8333 %
63 05-09-2020 14:00:00 19.6 C 28.1667 %
64 05-09-2020 15:00:00 18.98333 C 28.6667 %
65 05-09-2020 16:00:00 20.01667 C 26.1667 %
66 05-09-2020 17:00:00 20.68333 C 24.8333 %
67 05-09-2020 18:00:00 19.65 C 24.3333 %
68 05-09-2020 19:00:00 17.86667 C 25.6667 %
69 05-09-2020 20:00:00 15.81667 C 28.5000 %
70 05-09-2020 21:00:00 14 C 32.3333 %
71 05-09-2020 22:00:00 13.81667 C 32.8333 %
72 05-09-2020 23:00:00 13.03333 C 34.6667 %
73 06-09-2020 00:00:00 12.2 C 36.8333 %
74 06-09-2020 01:00:00 11.18333 C 39.6667 %
75 06-09-2020 02:00:00 10.03333 C 41.0000 %
Sensor: Nr:Datum:Temp:Feuchte:
Aussen-T/F 76 06-09-2020 03:00:00 8.95 C 44.0000 %
77 06-09-2020 04:00:00 8.6 C 45.1667 %
78 06-09-2020 05:00:00 8.18333 C 45.5000 %
79 06-09-2020 06:00:00 7.55 C 46.0000 %
80 06-09-2020 07:00:00 7.65 C 46.0000 %
81 06-09-2020 08:00:00 7.95 C 45.8333 %
82 06-09-2020 09:00:00 9.25 C 44.0000 %
83 06-09-2020 10:00:00 11.71667 C 39.0000 %
84 06-09-2020 11:00:00 15.65 C 31.5000 %
85 06-09-2020 12:00:00 17.13333 C 27.6667 %
86 06-09-2020 13:00:00 18.28333 C 25.6667 %
87 06-09-2020 14:00:00 21.56667 C 21.1667 %
88 06-09-2020 15:00:00 21.3 C 20.3333 %
89 06-09-2020 16:00:00 19.11667 C 21.3333 %
90 06-09-2020 17:00:00 19.16667 C 22.0000 %
91 06-09-2020 18:00:00 18.96667 C 21.8333 %
92 06-09-2020 19:00:00 16.78333 C 25.3333 %
93 06-09-2020 20:00:00 13.98333 C 29.8333 %
94 06-09-2020 21:00:00 12.36667 C 34.0000 %
95 06-09-2020 22:00:00 12.3 C 35.0000 %
96 06-09-2020 23:00:00 12.61667 C 35.0000 %
97 07-09-2020 00:00:00 12.53333 C 35.0000 %
98 07-09-2020 01:00:00 11.66667 C 36.6667 %
99 07-09-2020 02:00:00 9.65 C 40.6667 %
100 07-09-2020 03:00:00 8.71667 C 42.8333 %
Sensor: Nr:Datum:Temp:Feuchte:
Aussen-T/F 101 07-09-2020 04:00:00 8.16667 C 44.5000 %
102 07-09-2020 05:00:00 7.7 C 45.3333 %
103 07-09-2020 06:00:00 7.31667 C 46.0000 %
104 07-09-2020 07:00:00 7.16667 C 46.1667 %
105 07-09-2020 08:00:00 7.88333 C 45.5000 %
106 07-09-2020 09:00:00 9.3 C 43.3333 %
107 07-09-2020 10:00:00 11.53333 C 39.6667 %
108 07-09-2020 11:00:00 15.23333 C 33.5000 %
109 07-09-2020 12:00:00 16.93333 C 30.0000 %
110 07-09-2020 13:00:00 17.81667 C 27.5000 %
111 07-09-2020 14:00:00 22.3 C 22.1667 %
112 07-09-2020 15:00:00 27.38333 C 20.0000 %
113 07-09-2020 16:00:00 27.73333 C 20.0000 %
114 07-09-2020 17:00:00 26.08333 C 20.0000 %
115 07-09-2020 18:00:00 21.31667 C 21.0000 %
116 07-09-2020 19:00:00 18.81667 C 24.6667 %
117 07-09-2020 20:00:00 15.88333 C 27.8333 %
118 07-09-2020 21:00:00 13.21667 C 33.3333 %
119 07-09-2020 22:00:00 11.81667 C 36.1667 %
120 07-09-2020 23:00:00 11.06667 C 37.8333 %
121 08-09-2020 00:00:00 10.18333 C 39.5000 %
122 08-09-2020 01:00:00 9.71667 C 40.6667 %
123 08-09-2020 02:00:00 9.15 C 41.8333 %
124 08-09-2020 03:00:00 8.8 C 42.3333 %
125 08-09-2020 04:00:00 8.28333 C 43.8333 %
Sensor: Nr:Datum:Temp:Feuchte:
Aussen-T/F 126 08-09-2020 05:00:00 8.03333 C 44.5000 %
127 08-09-2020 06:00:00 7.56667 C 45.0000 %
128 08-09-2020 07:00:00 7.91667 C 45.0000 %
129 08-09-2020 08:00:00 8.88333 C 43.5000 %
130 08-09-2020 09:00:00 10.33333 C 40.5000 %
131 08-09-2020 10:00:00 13.56667 C 35.5000 %
132 08-09-2020 11:00:00 18.75 C 28.0000 %
133 08-09-2020 12:00:00 21.35 C 24.6667 %
134 08-09-2020 13:00:00 22.15 C 23.0000 %
135 08-09-2020 14:00:00 25.93333 C 20.5000 %
136 08-09-2020 15:00:00 29.63333 C 20.0000 %
137 08-09-2020 16:00:00 32.06667 C 20.0000 %
138 08-09-2020 17:00:00 30.46667 C 20.0000 %
139 08-09-2020 18:00:00 26.4 C 20.0000 %
140 08-09-2020 19:00:00 23.46667 C 22.5000 %
141 08-09-2020 20:00:00 19.71667 C 29.1667 %
142 08-09-2020 21:00:00 18.76667 C 30.6667 %
143 08-09-2020 22:00:00 17.43333 C 33.0000 %
144 08-09-2020 23:00:00 15.43333 C 37.0000 %
145 09-09-2020 00:00:00 14.45 C 39.8333 %
146 09-09-2020 01:00:00 13.9 C 41.0000 %
147 09-09-2020 02:00:00 13.33333 C 42.1667 %
148 09-09-2020 03:00:00 12.7 C 43.5000 %
149 09-09-2020 04:00:00 12.33333 C 44.0000 %
150 09-09-2020 05:00:00 12.13333 C 43.8333 %
Sensor: Nr:Datum:Temp:Feuchte:
Aussen-T/F 151 09-09-2020 06:00:00 11.76667 C 44.8333 %
152 09-09-2020 07:00:00 11.88333 C 44.3333 %
153 09-09-2020 08:00:00 12.55 C 43.3333 %
154 09-09-2020 09:00:00 14.38333 C 40.3333 %
155 09-09-2020 10:00:00 19.53333 C 32.3333 %
156 09-09-2020 11:00:00 23.21667 C 26.1667 %
157 09-09-2020 12:00:00 23.48333 C 25.8333 %
158 09-09-2020 13:00:00 23.43333 C 26.0000 %
159 09-09-2020 14:00:00 25.23333 C 24.0000 %
160 09-09-2020 15:00:00 26.78333 C 21.5000 %
161 09-09-2020 16:00:00 24.81667 C 23.3333 %
162 09-09-2020 17:00:00 25.46667 C 22.1667 %
163 09-09-2020 18:00:00 23.98333 C 25.0000 %
164 09-09-2020 19:00:00 22.05 C 29.3333 %
165 09-09-2020 20:00:00 20.46667 C 31.1667 %
166 09-09-2020 21:00:00 19.7 C 32.0000 %
167 09-09-2020 22:00:00 19.81667 C 32.5000 %
168 09-09-2020 23:00:00 20.43333 C 31.3333 %
169 10-09-2020 00:00:00 19.8 C 34.8333 %
170 10-09-2020 01:00:00 17.96667 C 40.3333 %
171 10-09-2020 02:00:00 17.31667 C 38.3333 %
172 10-09-2020 03:00:00 17.01667 C 37.0000 %
173 10-09-2020 04:00:00 16.63333 C 36.6667 %
174 10-09-2020 05:00:00 16.33333 C 35.3333 %
175 10-09-2020 06:00:00 15.91667 C 35.6667 %
Sensor: Nr:Datum:Temp:Feuchte:
Aussen-T/F 176 10-09-2020 07:00:00 15.31667 C 36.3333 %
177 10-09-2020 08:00:00 15.61667 C 36.0000 %
178 10-09-2020 09:00:00 16.4 C 34.8333 %
179 10-09-2020 10:00:00 16.78333 C 32.0000 %
180 10-09-2020 11:00:00 17.91667 C 30.1667 %
181 10-09-2020 12:00:00 18.66667 C 28.0000 %
182 10-09-2020 13:00:00 18.68333 C 26.6667 %
183 10-09-2020 14:00:00 22.45 C 23.0000 %
184 10-09-2020 15:00:00 27.08333 C 20.0000 %
185 10-09-2020 16:00:00 27.7 C 20.0000 %
186 10-09-2020 17:00:00 24.55 C 20.0000 %
187 10-09-2020 18:00:00 21.83333 C 20.6667 %
188 10-09-2020 19:00:00 20.48333 C 22.0000 %
189 10-09-2020 20:00:00 17.1 C 26.0000 %
190 10-09-2020 21:00:00 15.8 C 27.8333 %
191 10-09-2020 22:00:00 13.71667 C 31.8333 %
192 10-09-2020 23:00:00 12.06667 C 35.3333 %
193 11-09-2020 00:00:00 12.01667 C 35.5000 %
194 11-09-2020 01:00:00 11.71667 C 36.0000 %
195 11-09-2020 02:00:00 10.58333 C 39.0000 %
196 11-09-2020 03:00:00 9.7 C 40.6667 %
197 11-09-2020 04:00:00 8.93333 C 42.8333 %
198 11-09-2020 05:00:00 8.25 C 44.5000 %
199 11-09-2020 06:00:00 7.86667 C 45.5000 %
200 11-09-2020 07:00:00 8.01667 C 45.3333 %
Sensor: Nr:Datum:Temp:Feuchte:
Aussen-T/F 201 11-09-2020 08:00:00 8.5 C 45.0000 %
202 11-09-2020 09:00:00 9.98333 C 42.5000 %
203 11-09-2020 10:00:00 12.35 C 38.5000 %
204 11-09-2020 11:00:00 15.85 C 32.1667 %
205 11-09-2020 12:00:00 18.66667 C 27.5000 %
206 11-09-2020 13:00:00 20.08333 C 25.1667 %
207 11-09-2020 14:00:00 23.53333 C 21.5000 %
208 11-09-2020 15:00:00 27.56667 C 20.0000 %
209 11-09-2020 16:00:00 27.61667 C 20.0000 %
210 11-09-2020 17:00:00 26.41667 C 20.0000 %
211 11-09-2020 18:00:00 23.23333 C 21.5000 %
212 11-09-2020 19:00:00 20.05 C 25.6667 %
213 11-09-2020 20:00:00 17.66667 C 28.8333 %
214 11-09-2020 21:00:00 15.6 C 32.0000 %
215 11-09-2020 22:00:00 14.33333 C 35.0000 %
216 11-09-2020 23:00:00 13.21667 C 37.1667 %
217 12-09-2020 00:00:00 12.38333 C 39.1667 %
218 12-09-2020 01:00:00 12.05 C 39.8333 %
219 12-09-2020 02:00:00 11.2 C 41.8333 %
220 12-09-2020 03:00:00 10.73333 C 43.3333 %
221 12-09-2020 04:00:00 10.35 C 44.5000 %
222 12-09-2020 05:00:00 9.75 C 45.1667 %
223 12-09-2020 06:00:00 9.68333 C 45.5000 %
224 12-09-2020 07:00:00 9.73333 C 45.5000 %
225 12-09-2020 08:00:00 11.2 C 43.1667 %
Sensor: Nr:Datum:Temp:Feuchte:
Aussen-T/F 226 12-09-2020 09:00:00 13.83333 C 36.8333 %
227 12-09-2020 10:00:00 15.9 C 33.8333 %
228 12-09-2020 11:00:00 18.85 C 31.0000 %
229 12-09-2020 12:00:00 21.85 C 27.0000 %
230 12-09-2020 13:00:00 25.25 C 21.3333 %
231 12-09-2020 14:00:00 26.51667 C 20.8333 %
232 12-09-2020 15:00:00 29.91667 C 20.0000 %
233 12-09-2020 16:00:00 30.1 C 20.0000 %
234 12-09-2020 17:00:00 28.18333 C 20.0000 %
235 12-09-2020 18:00:00 24.55 C 21.1667 %
236 12-09-2020 19:00:00 21.45 C 26.3333 %
237 12-09-2020 20:00:00 19.06667 C 29.5000 %
238 12-09-2020 21:00:00 17.76667 C 29.6667 %
239 12-09-2020 22:00:00 16.75 C 30.1667 %
240 12-09-2020 23:00:00 15.5 C 32.0000 %
241 13-09-2020 00:00:00 13.45 C 36.0000 %
242 13-09-2020 01:00:00 12.45 C 38.3333 %
243 13-09-2020 02:00:00 11.73333 C 40.5000 %
244 13-09-2020 03:00:00 11.2 C 41.6667 %
245 13-09-2020 04:00:00 11 C 42.5000 %
246 13-09-2020 05:00:00 10.26667 C 44.3333 %
247 13-09-2020 06:00:00 9.9 C 45.1667 %
248 13-09-2020 07:00:00 9.83333 C 45.5000 %
249 13-09-2020 08:00:00 10.61667 C 44.6667 %
250 13-09-2020 09:00:00 12 C 41.6667 %
Sensor: Nr:Datum:Temp:Feuchte:
Aussen-T/F 251 13-09-2020 10:00:00 14 C 38.1667 %
252 13-09-2020 11:00:00 17.2 C 32.8333 %
253 13-09-2020 12:00:00 19.91667 C 30.0000 %
254 13-09-2020 13:00:00 21.83333 C 26.3333 %
255 13-09-2020 14:00:00 25.41667 C 21.8333 %
256 13-09-2020 15:00:00 31.51667 C 20.0000 %
257 13-09-2020 16:00:00 32.18333 C 20.0000 %
258 13-09-2020 17:00:00 31.5 C 20.0000 %
259 13-09-2020 18:00:00 25.26667 C 20.5000 %
260 13-09-2020 19:00:00 22.98333 C 21.6667 %
261 13-09-2020 20:00:00 19.78333 C 26.5000 %
262 13-09-2020 21:00:00 17.56667 C 29.6667 %
263 13-09-2020 22:00:00 15.81667 C 32.0000 %
264 13-09-2020 23:00:00 14.55 C 35.0000 %
265 14-09-2020 00:00:00 13.86667 C 36.1667 %
266 14-09-2020 01:00:00 13.01667 C 37.8333 %
267 14-09-2020 02:00:00 12.2 C 40.0000 %
268 14-09-2020 03:00:00 11.65 C 41.5000 %
269 14-09-2020 04:00:00 10.96667 C 43.3333 %
270 14-09-2020 05:00:00 10.58333 C 44.5000 %
271 14-09-2020 06:00:00 10.13333 C 45.0000 %
272 14-09-2020 07:00:00 10.26667 C 45.0000 %
273 14-09-2020 08:00:00 10.95 C 44.6667 %
274 14-09-2020 09:00:00 12.35 C 42.8333 %
275 14-09-2020 10:00:00 14.9 C 37.5000 %
Sensor: Nr:Datum:Temp:Feuchte:
Aussen-T/F 276 14-09-2020 11:00:00 19.06667 C 32.3333 %
277 14-09-2020 12:00:00 23.08333 C 27.1667 %
278 14-09-2020 13:00:00 26.3 C 23.0000 %
279 14-09-2020 14:00:00 29.96667 C 20.1667 %
280 14-09-2020 15:00:00 33.38333 C 20.0000 %
281 14-09-2020 16:00:00 31.91667 C 20.0000 %
282 14-09-2020 17:00:00 30.11667 C 20.0000 %
283 14-09-2020 18:00:00 27.9 C 20.0000 %
284 14-09-2020 19:00:00 24.43333 C 20.0000 %
285 14-09-2020 20:00:00 21.23333 C 25.0000 %
286 14-09-2020 21:00:00 19.23333 C 29.5000 %
287 14-09-2020 22:00:00 17.75 C 32.0000 %
288 14-09-2020 23:00:00 16.53333 C 34.8333 %
289 15-09-2020 00:00:00 15.6 C 35.8333 %
290 15-09-2020 01:00:00 14.86667 C 37.5000 %
291 15-09-2020 02:00:00 14.08333 C 39.0000 %
292 15-09-2020 03:00:00 13.5 C 41.0000 %
293 15-09-2020 04:00:00 12.71667 C 42.3333 %
294 15-09-2020 05:00:00 12.33333 C 43.5000 %
295 15-09-2020 06:00:00 11.75 C 45.0000 %
296 15-09-2020 07:00:00 11.68333 C 44.8333 %
297 15-09-2020 08:00:00 12.36667 C 43.8333 %
298 15-09-2020 09:00:00 13.9 C 42.5000 %
299 15-09-2020 10:00:00 16.31667 C 38.1667 %
300 15-09-2020 11:00:00 19.65 C 33.3333 %
Sensor: Nr:Datum:Temp:Feuchte:
Aussen-T/F 301 15-09-2020 12:00:00 22.76667 C 28.8333 %
302 15-09-2020 13:00:00 26.31667 C 23.5000 %
303 15-09-2020 14:00:00 30.45 C 20.0000 %
304 15-09-2020 15:00:00 35.41667 C 20.0000 %
305 15-09-2020 16:00:00 38.25 C 20.0000 %
306 15-09-2020 17:00:00 35.4 C 20.0000 %
307 15-09-2020 18:00:00 29.4 C 20.0000 %
308 15-09-2020 19:00:00 26.43333 C 20.0000 %
309 15-09-2020 20:00:00 23.5 C 21.0000 %
310 15-09-2020 21:00:00 21.28333 C 26.0000 %
311 15-09-2020 22:00:00 19.81667 C 29.1667 %
312 15-09-2020 23:00:00 18.46667 C 31.5000 %
313 16-09-2020 00:00:00 17.8 C 32.3333 %
314 16-09-2020 01:00:00 16.41667 C 34.8333 %
315 16-09-2020 02:00:00 15.61667 C 36.5000 %
316 16-09-2020 03:00:00 14.9 C 37.8333 %
317 16-09-2020 04:00:00 14.45 C 39.3333 %
318 16-09-2020 05:00:00 14.03333 C 40.5000 %
319 16-09-2020 06:00:00 13.85 C 41.0000 %
320 16-09-2020 07:00:00 13.96667 C 41.0000 %
321 16-09-2020 08:00:00 14.43333 C 40.1667 %
322 16-09-2020 09:00:00 16.61667 C 36.0000 %
323 16-09-2020 10:00:00 20.05 C 31.6667 %
324 16-09-2020 11:00:00 22.56667 C 28.0000 %
325 16-09-2020 12:00:00 25.08333 C 25.1667 %
Sensor: Nr:Datum:Temp:Feuchte:
Aussen-T/F 326 16-09-2020 13:00:00 24.68333 C 25.5000 %
327 16-09-2020 14:00:00 29.06667 C 21.0000 %
328 16-09-2020 15:00:00 30.75 C 20.0000 %
329 16-09-2020 16:00:00 33.71667 C 20.0000 %
330 16-09-2020 17:00:00 28.41667 C 20.5000 %
331 16-09-2020 18:00:00 26.63333 C 21.8333 %
332 16-09-2020 19:00:00 24.55 C 24.8333 %
333 16-09-2020 20:00:00 22.18333 C 28.3333 %
334 16-09-2020 21:00:00 22.01667 C 28.6667 %
335 16-09-2020 22:00:00 21.75 C 28.8333 %
336 16-09-2020 23:00:00 20.4 C 30.0000 %
337 17-09-2020 00:00:00 20.56667 C 30.0000 %
338 17-09-2020 01:00:00 19.55 C 30.1667 %
339 17-09-2020 02:00:00 17.93333 C 31.5000 %
340 17-09-2020 03:00:00 16.56667 C 34.6667 %
341 17-09-2020 04:00:00 17.41667 C 33.5000 %
342 17-09-2020 05:00:00 16.95 C 33.3333 %
343 17-09-2020 06:00:00 16.85 C 33.1667 %
344 17-09-2020 07:00:00 16.43333 C 33.6667 %
345 17-09-2020 08:00:00 16.08333 C 33.0000 %
346 17-09-2020 09:00:00 16 C 32.5000 %
347 17-09-2020 10:00:00 16.31667 C 29.6667 %
348 17-09-2020 11:00:00 16.8 C 28.1667 %
349 17-09-2020 12:00:00 17.83333 C 26.8333 %
350 17-09-2020 13:00:00 18.98333 C 24.5000 %
Sensor: Nr:Datum:Temp:Feuchte:
Aussen-T/F 351 17-09-2020 14:00:00 21.06667 C 20.3333 %
352 17-09-2020 15:00:00 24.46667 C 20.0000 %
353 17-09-2020 16:00:00 25 C 20.0000 %
354 17-09-2020 17:00:00 23.13333 C 20.0000 %
355 17-09-2020 18:00:00 21.11667 C 20.0000 %
356 17-09-2020 19:00:00 18.03333 C 21.6667 %
357 17-09-2020 20:00:00 15.95 C 24.8333 %
358 17-09-2020 21:00:00 14.9 C 26.6667 %
359 17-09-2020 22:00:00 14.21667 C 28.1667 %
360 17-09-2020 23:00:00 13.23333 C 30.1667 %
361 18-09-2020 00:00:00 12.46667 C 31.3333 %
362 18-09-2020 01:00:00 12.35 C 31.8333 %
363 18-09-2020 02:00:00 11.81667 C 32.1667 %
364 18-09-2020 03:00:00 10.81667 C 34.3333 %
365 18-09-2020 04:00:00 10.08333 C 35.1667 %
366 18-09-2020 05:00:00 9.25 C 36.8333 %
367 18-09-2020 06:00:00 8.9 C 37.6667 %
368 18-09-2020 07:00:00 9.58333 C 36.8333 %
369 18-09-2020 08:00:00 10.5 C 36.0000 %
370 18-09-2020 09:00:00 11.63333 C 34.3333 %
371 18-09-2020 10:00:00 13.93333 C 30.6667 %
372 18-09-2020 11:00:00 16.73333 C 27.5000 %
373 18-09-2020 12:00:00 19.01667 C 26.0000 %
374 18-09-2020 13:00:00 21.33333 C 24.3333 %
375 18-09-2020 14:00:00 23.73333 C 21.0000 %
Sensor: Nr:Datum:Temp:Feuchte:
Aussen-T/F 376 18-09-2020 15:00:00 26.38333 C 20.0000 %
377 18-09-2020 16:00:00 27.68333 C 20.0000 %
378 18-09-2020 17:00:00 26.58333 C 20.0000 %
379 18-09-2020 18:00:00 23.13333 C 20.0000 %
380 18-09-2020 19:00:00 19.06667 C 23.8333 %
381 18-09-2020 20:00:00 16.4 C 26.3333 %
382 18-09-2020 21:00:00 15.46667 C 26.8333 %
383 18-09-2020 22:00:00 14.66667 C 26.8333 %
384 18-09-2020 23:00:00 13.83333 C 27.6667 %
385 19-09-2020 00:00:00 13.48333 C 27.8333 %
386 19-09-2020 01:00:00 12.2 C 30.0000 %
387 19-09-2020 02:00:00 10.9 C 32.3333 %
388 19-09-2020 03:00:00 9.63333 C 35.0000 %
389 19-09-2020 04:00:00 8.78333 C 36.3333 %
390 19-09-2020 05:00:00 8.01667 C 37.6667 %
391 19-09-2020 06:00:00 7.3 C 40.1667 %
392 19-09-2020 07:00:00 6.96667 C 41.5000 %
393 19-09-2020 08:00:00 7.75 C 41.1667 %
394 19-09-2020 09:00:00 9.31667 C 39.1667 %
395 19-09-2020 10:00:00 12.51667 C 33.0000 %
396 19-09-2020 11:00:00 16.11667 C 28.1667 %
397 19-09-2020 12:00:00 19.28333 C 23.8333 %
398 19-09-2020 13:00:00 21.2 C 21.3333 %
399 19-09-2020 14:00:00 24.35 C 20.0000 %
400 19-09-2020 15:00:00 28.16667 C 20.0000 %
Sensor: Nr:Datum:Temp:Feuchte:
Aussen-T/F 401 19-09-2020 16:00:00 29.45 C 20.0000 %
402 19-09-2020 17:00:00 27.66667 C 20.0000 %
403 19-09-2020 18:00:00 24.3 C 20.0000 %
404 19-09-2020 19:00:00 20.03333 C 20.0000 %
405 19-09-2020 20:00:00 17.46667 C 21.5000 %
406 19-09-2020 21:00:00 16.06667 C 24.1667 %
407 19-09-2020 22:00:00 15.15 C 25.8333 %
408 19-09-2020 23:00:00 13.88333 C 28.3333 %
409 20-09-2020 00:00:00 13.06667 C 30.1667 %
410 20-09-2020 01:00:00 11.88333 C 33.8333 %
411 20-09-2020 02:00:00 10.93333 C 34.8333 %
412 20-09-2020 03:00:00 9.76667 C 36.6667 %
413 20-09-2020 04:00:00 9.16667 C 37.0000 %
414 20-09-2020 05:00:00 8.86667 C 38.8333 %
415 20-09-2020 06:00:00 8.03333 C 40.5000 %
416 20-09-2020 07:00:00 7.53333 C 41.6667 %
417 20-09-2020 08:00:00 8.53333 C 41.5000 %
418 20-09-2020 09:00:00 9.91667 C 40.0000 %
419 20-09-2020 10:00:00 12.38333 C 36.1667 %
420 20-09-2020 11:00:00 15.3 C 32.0000 %
421 20-09-2020 12:00:00 19.06667 C 27.1667 %
422 20-09-2020 13:00:00 21.4 C 22.1667 %
423 20-09-2020 14:00:00 24.5 C 20.0000 %
424 20-09-2020 15:00:00 23 C 20.1667 %
425 20-09-2020 16:00:00 26.55 C 20.1667 %
Sensor: Nr:Datum:Temp:Feuchte:
Aussen-T/F 426 20-09-2020 17:00:00 24.61667 C 20.1667 %
427 20-09-2020 18:00:00 20.01667 C 22.1667 %
428 20-09-2020 19:00:00 17.46667 C 24.5000 %
429 20-09-2020 20:00:00 14.98333 C 26.6667 %
430 20-09-2020 21:00:00 13.41667 C 29.5000 %
431 20-09-2020 22:00:00 11.96667 C 33.5000 %
432 20-09-2020 23:00:00 10.8 C 36.0000 %
433 21-09-2020 00:00:00 10.01667 C 37.0000 %
434 21-09-2020 01:00:00 9.55 C 38.0000 %
435 21-09-2020 02:00:00 8.58333 C 39.8333 %
436 21-09-2020 03:00:00 8.25 C 41.0000 %
437 21-09-2020 04:00:00 7.81667 C 42.3333 %
438 21-09-2020 05:00:00 7.41667 C 43.1667 %
439 21-09-2020 06:00:00 6.96667 C 44.3333 %
440 21-09-2020 07:00:00 6.7 C 45.1667 %
441 21-09-2020 08:00:00 7.26667 C 44.5000 %
442 21-09-2020 09:00:00 8.66667 C 41.5000 %
443 21-09-2020 10:00:00 10.81667 C 38.0000 %
444 21-09-2020 11:00:00 14.21667 C 33.6667 %
445 21-09-2020 12:00:00 18 C 29.0000 %
446 21-09-2020 13:00:00 20.73333 C 24.8333 %
447 21-09-2020 14:00:00 25.55 C 20.0000 %
448 21-09-2020 15:00:00 28.06667 C 20.0000 %
449 21-09-2020 16:00:00 31.21667 C 20.0000 %
450 21-09-2020 17:00:00 29.31667 C 20.0000 %
Sensor: Nr:Datum:Temp:Feuchte:
Aussen-T/F 451 21-09-2020 18:00:00 22.85 C 20.0000 %
452 21-09-2020 19:00:00 19.38333 C 20.6667 %
453 21-09-2020 20:00:00 16.4 C 25.0000 %
454 21-09-2020 21:00:00 14.76667 C 27.6667 %
455 21-09-2020 22:00:00 13.28333 C 30.6667 %
456 21-09-2020 23:00:00 12.11667 C 33.6667 %
457 22-09-2020 00:00:00 11.1 C 36.1667 %
458 22-09-2020 01:00:00 11 C 36.5000 %
459 22-09-2020 02:00:00 9.83333 C 38.8333 %
460 22-09-2020 03:00:00 9.03333 C 40.5000 %
461 22-09-2020 04:00:00 8.61667 C 42.1667 %
462 22-09-2020 05:00:00 8.23333 C 43.0000 %
463 22-09-2020 06:00:00 7.7 C 45.0000 %
464 22-09-2020 07:00:00 7.61667 C 45.1667 %
465 22-09-2020 08:00:00 8.33333 C 44.8333 %
466 22-09-2020 09:00:00 9.66667 C 42.1667 %
467 22-09-2020 10:00:00 11.86667 C 38.3333 %
468 22-09-2020 11:00:00 15.36667 C 33.3333 %
469 22-09-2020 12:00:00 19.08333 C 29.3333 %
470 22-09-2020 13:00:00 22.4 C 23.3333 %
471 22-09-2020 14:00:00 27.08333 C 20.0000 %
472 22-09-2020 15:00:00 28.36667 C 20.0000 %
473 22-09-2020 16:00:00 30.68333 C 20.0000 %
474 22-09-2020 17:00:00 29.45 C 20.0000 %
475 22-09-2020 18:00:00 24.88333 C 20.0000 %
Sensor: Nr:Datum:Temp:Feuchte:
Aussen-T/F 476 22-09-2020 19:00:00 20.78333 C 22.3333 %
477 22-09-2020 20:00:00 18.53333 C 25.3333 %
478 22-09-2020 21:00:00 16.86667 C 27.3333 %
479 22-09-2020 22:00:00 15.66667 C 29.5000 %
480 22-09-2020 23:00:00 14.63333 C 30.8333 %
481 23-09-2020 00:00:00 13.88333 C 31.6667 %
482 23-09-2020 01:00:00 14.05 C 32.5000 %
483 23-09-2020 02:00:00 14.08333 C 32.3333 %
484 23-09-2020 03:00:00 13.78333 C 33.1667 %
485 23-09-2020 04:00:00 13.58333 C 33.8333 %
486 23-09-2020 05:00:00 11.9 C 36.3333 %
487 23-09-2020 06:00:00 11.9 C 36.6667 %
488 23-09-2020 07:00:00 13.96667 C 32.5000 %
489 23-09-2020 08:00:00 13.83333 C 32.8333 %
490 23-09-2020 09:00:00 14.85 C 31.8333 %
491 23-09-2020 10:00:00 18.18333 C 26.0000 %
492 23-09-2020 11:00:00 19.66667 C 25.5000 %
493 23-09-2020 12:00:00 21.11667 C 24.5000 %
494 23-09-2020 13:00:00 22.93333 C 22.3333 %
495 23-09-2020 14:00:00 24.46667 C 20.6667 %
496 23-09-2020 15:00:00 25.66667 C 20.3333 %
497 23-09-2020 16:00:00 28.31667 C 20.0000 %
498 23-09-2020 17:00:00 24.58333 C 20.0000 %
499 23-09-2020 18:00:00 21.66667 C 22.8333 %
500 23-09-2020 19:00:00 18.18333 C 29.0000 %
Sensor: Nr:Datum:Temp:Feuchte:
Aussen-T/F 501 23-09-2020 20:00:00 17.13333 C 31.1667 %
502 23-09-2020 21:00:00 17.63333 C 31.1667 %
503 23-09-2020 22:00:00 17.2 C 32.6667 %
504 23-09-2020 23:00:00 17.51667 C 32.3333 %
505 24-09-2020 00:00:00 17.36667 C 32.5000 %
506 24-09-2020 01:00:00 17.91667 C 32.1667 %
507 24-09-2020 02:00:00 16.21667 C 40.8333 %
508 24-09-2020 03:00:00 15.58333 C 42.8333 %
509 24-09-2020 04:00:00 15.71667 C 42.0000 %
510 24-09-2020 05:00:00 15.81667 C 41.1667 %
511 24-09-2020 06:00:00 13.81667 C 37.3333 %
512 24-09-2020 07:00:00 11.68333 C 41.5000 %
513 24-09-2020 08:00:00 12.45 C 37.1667 %
514 24-09-2020 09:00:00 12.93333 C 36.0000 %
515 24-09-2020 10:00:00 13.86667 C 33.0000 %
516 24-09-2020 11:00:00 15.38333 C 30.1667 %
517 24-09-2020 12:00:00 18.05 C 26.5000 %
518 24-09-2020 13:00:00 18.86667 C 25.6667 %
519 24-09-2020 14:00:00 20.38333 C 23.1667 %
520 24-09-2020 15:00:00 20.86667 C 22.3333 %
521 24-09-2020 16:00:00 21.53333 C 21.8333 %
522 24-09-2020 17:00:00 19.93333 C 24.1667 %
523 24-09-2020 18:00:00 17.91667 C 28.8333 %
524 24-09-2020 19:00:00 16.4 C 32.6667 %
525 24-09-2020 20:00:00 15.61667 C 34.0000 %
Sensor: Nr:Datum:Temp:Feuchte:
Aussen-T/F 526 24-09-2020 21:00:00 14.53333 C 36.1667 %
527 24-09-2020 22:00:00 13.9 C 38.1667 %
528 24-09-2020 23:00:00 13.35 C 39.8333 %
529 25-09-2020 00:00:00 13.63333 C 39.6667 %
530 25-09-2020 01:00:00 13.73333 C 39.8333 %
531 25-09-2020 02:00:00 13.28333 C 39.1667 %
532 25-09-2020 03:00:00 11.51667 C 42.8333 %
533 25-09-2020 04:00:00 10.81667 C 44.3333 %
534 25-09-2020 05:00:00 10.61667 C 43.5000 %
535 25-09-2020 06:00:00 10.2 C 42.3333 %
536 25-09-2020 07:00:00 9.43333 C 42.3333 %
537 25-09-2020 08:00:00 9.55 C 40.3333 %
538 25-09-2020 09:00:00 10.78333 C 36.8333 %
539 25-09-2020 10:00:00 12.13333 C 34.6667 %
540 25-09-2020 11:00:00 13.03333 C 32.5000 %
541 25-09-2020 12:00:00 14.11667 C 30.1667 %
542 25-09-2020 13:00:00 13.78333 C 30.5000 %
543 25-09-2020 14:00:00 13.65 C 33.3333 %
544 25-09-2020 15:00:00 14.2 C 32.8333 %
545 25-09-2020 16:00:00 16.78333 C 28.6667 %
546 25-09-2020 17:00:00 14.7 C 29.5000 %
547 25-09-2020 18:00:00 12.3 C 34.0000 %
548 25-09-2020 19:00:00 11.86667 C 35.1667 %
549 25-09-2020 20:00:00 11.68333 C 35.5000 %
550 25-09-2020 21:00:00 11.46667 C 35.0000 %
Sensor: Nr:Datum:Temp:Feuchte:
Aussen-T/F 551 25-09-2020 22:00:00 11.23333 C 35.1667 %
552 25-09-2020 23:00:00 10.95 C 35.3333 %
553 26-09-2020 00:00:00 10.31667 C 36.5000 %
554 26-09-2020 01:00:00 10.45 C 36.0000 %
555 26-09-2020 02:00:00 10.15 C 36.6667 %
556 26-09-2020 03:00:00 9.75 C 37.0000 %
557 26-09-2020 04:00:00 9.58333 C 36.8333 %
558 26-09-2020 05:00:00 9.51667 C 36.0000 %
559 26-09-2020 06:00:00 9.3 C 37.0000 %
560 26-09-2020 07:00:00 8.88333 C 39.6667 %
561 26-09-2020 08:00:00 8.71667 C 44.1667 %
562 26-09-2020 09:00:00 9.83333 C 41.3333 %
563 26-09-2020 10:00:00 10.76667 C 39.5000 %
564 26-09-2020 11:00:00 11.33333 C 38.8333 %
565 26-09-2020 12:00:00 11.45 C 38.3333 %
566 26-09-2020 13:00:00 10.93333 C 42.3333 %
567 26-09-2020 14:00:00 11.35 C 40.5000 %
568 26-09-2020 15:00:00 10.66667 C 42.3333 %
569 26-09-2020 16:00:00 10.55 C 41.0000 %
570 26-09-2020 17:00:00 10.56667 C 41.6667 %
571 26-09-2020 18:00:00 10.21667 C 43.5000 %
572 26-09-2020 19:00:00 10.13333 C 43.6667 %
573 26-09-2020 20:00:00 9.65 C 46.0000 %
574 26-09-2020 21:00:00 9.63333 C 46.0000 %
575 26-09-2020 22:00:00 9.45 C 45.8333 %
Sensor: Nr:Datum:Temp:Feuchte:
Aussen-T/F 576 26-09-2020 23:00:00 9.28333 C 45.0000 %
577 27-09-2020 00:00:00 8.75 C 46.0000 %
578 27-09-2020 01:00:00 8.41667 C 45.6667 %
579 27-09-2020 02:00:00 8.68333 C 45.5000 %
580 27-09-2020 03:00:00 8.93333 C 46.0000 %
581 27-09-2020 04:00:00 9.1 C 45.8333 %
582 27-09-2020 05:00:00 9.06667 C 45.6667 %
583 27-09-2020 06:00:00 9.08333 C 45.0000 %
584 27-09-2020 07:00:00 9.06667 C 45.0000 %
585 27-09-2020 08:00:00 9.61667 C 44.6667 %
586 27-09-2020 09:00:00 10.93333 C 41.3333 %
587 27-09-2020 10:00:00 12.38333 C 38.0000 %
588 27-09-2020 11:00:00 13.18333 C 35.8333 %
589 27-09-2020 12:00:00 13.16667 C 36.1667 %
590 27-09-2020 13:00:00 14.38333 C 33.6667 %
591 27-09-2020 14:00:00 14.83333 C 32.1667 %
592 27-09-2020 15:00:00 13.43333 C 33.5000 %
593 27-09-2020 16:00:00 13.2 C 34.6667 %
594 27-09-2020 17:00:00 12.5 C 38.6667 %
595 27-09-2020 18:00:00 11.6 C 40.3333 %
596 27-09-2020 19:00:00 10.88333 C 41.3333 %
597 27-09-2020 20:00:00 10.55 C 42.3333 %
598 27-09-2020 21:00:00 10.4 C 43.1667 %
599 27-09-2020 22:00:00 10.3 C 43.5000 %
600 27-09-2020 23:00:00 10.2 C 43.0000 %
Sensor: Nr:Datum:Temp:Feuchte:
Aussen-T/F 601 28-09-2020 00:00:00 10.18333 C 43.5000 %
602 28-09-2020 01:00:00 10.2 C 43.1667 %
603 28-09-2020 02:00:00 10.05 C 43.8333 %
604 28-09-2020 03:00:00 9.76667 C 45.3333 %
605 28-09-2020 04:00:00 9.83333 C 44.8333 %
606 28-09-2020 05:00:00 9.78333 C 44.5000 %
607 28-09-2020 06:00:00 9.88333 C 43.3333 %
608 28-09-2020 07:00:00 9.93333 C 41.8333 %
609 28-09-2020 08:00:00 10.18333 C 41.6667 %
610 28-09-2020 09:00:00 10.98333 C 38.3333 %
611 28-09-2020 10:00:00 12.6 C 35.1667 %
612 28-09-2020 11:00:00 14.08333 C 33.0000 %
613 28-09-2020 12:00:00 14.55 C 31.6667 %
614 28-09-2020 13:00:00 13.55 C 33.3333 %
615 28-09-2020 14:00:00 14.83333 C 32.1667 %
616 28-09-2020 15:00:00 14.61667 C 31.3333 %
617 28-09-2020 16:00:00 14.03333 C 31.8333 %
618 28-09-2020 17:00:00 13.58333 C 32.6667 %
619 28-09-2020 18:00:00 12.85 C 35.1667 %
620 28-09-2020 19:00:00 11.95 C 37.3333 %
621 28-09-2020 20:00:00 11.2 C 39.1667 %
622 28-09-2020 21:00:00 10.23333 C 41.8333 %
623 28-09-2020 22:00:00 10.73333 C 42.0000 %
624 28-09-2020 23:00:00 10.98333 C 41.1667 %
625 29-09-2020 00:00:00 10.9 C 41.5000 %
Sensor: Nr:Datum:Temp:Feuchte:
Aussen-T/F 626 29-09-2020 01:00:00 11 C 40.8333 %
627 29-09-2020 02:00:00 10.96667 C 41.3333 %
628 29-09-2020 03:00:00 10.93333 C 41.8333 %
629 29-09-2020 04:00:00 11.05 C 41.8333 %
630 29-09-2020 05:00:00 11.11667 C 42.0000 %
631 29-09-2020 06:00:00 11.2 C 42.5000 %
632 29-09-2020 07:00:00 11.03333 C 44.8333 %
633 29-09-2020 08:00:00 11.5 C 45.0000 %
634 29-09-2020 09:00:00 11.98333 C 44.5000 %
635 29-09-2020 10:00:00 12.58333 C 42.1667 %
636 29-09-2020 11:00:00 13.15 C 41.6667 %
637 29-09-2020 12:00:00 13.68333 C 40.3333 %
638 29-09-2020 13:00:00 13.7 C 41.6667 %
639 29-09-2020 14:00:00 13.93333 C 41.5000 %
640 29-09-2020 15:00:00 13.76667 C 41.1667 %
641 29-09-2020 16:00:00 12.76667 C 42.8333 %
642 29-09-2020 17:00:00 12.58333 C 44.8333 %
643 29-09-2020 18:00:00 12.61667 C 43.8333 %
644 29-09-2020 19:00:00 11.76667 C 44.3333 %
645 29-09-2020 20:00:00 10.86667 C 44.8333 %
646 29-09-2020 21:00:00 9.78333 C 44.8333 %
647 29-09-2020 22:00:00 9.5 C 44.1667 %
648 29-09-2020 23:00:00 10.2 C 43.1667 %
649 30-09-2020 00:00:00 10.48333 C 42.5000 %
650 30-09-2020 01:00:00 10.73333 C 42.0000 %
Sensor: Nr:Datum:Temp:Feuchte:
Aussen-T/F 651 30-09-2020 02:00:00 10.98333 C 41.3333 %
652 30-09-2020 03:00:00 11.25 C 41.0000 %
653 30-09-2020 04:00:00 11.46667 C 41.0000 %
654 30-09-2020 05:00:00 11.63333 C 41.0000 %
655 30-09-2020 06:00:00 11.76667 C 41.0000 %
656 30-09-2020 07:00:00 11.88333 C 40.6667 %
657 30-09-2020 08:00:00 12.6 C 41.1667 %
658 30-09-2020 09:00:00 13.93333 C 39.5000 %
659 30-09-2020 10:00:00 15.78333 C 37.0000 %
660 30-09-2020 11:00:00 17.2 C 34.5000 %
661 30-09-2020 12:00:00 17.41667 C 34.1667 %
662 30-09-2020 13:00:00 17.56667 C 34.3333 %
663 30-09-2020 14:00:00 18.88333 C 32.1667 %
664 30-09-2020 15:00:00 19.06667 C 31.6667 %
665 30-09-2020 16:00:00 18.23333 C 32.1667 %
666 30-09-2020 17:00:00 18.6 C 32.3333 %
667 30-09-2020 18:00:00 15.63333 C 37.5000 %
668 30-09-2020 19:00:00 14.76667 C 39.6667 %
669 30-09-2020 20:00:00 13.6 C 41.1667 %
670 30-09-2020 21:00:00 12.58333 C 42.8333 %
671 30-09-2020 22:00:00 11.5 C 44.3333 %
672 30-09-2020 23:00:00 11.1 C 44.1667 %
673 01-10-2020 00:00:00 10.78333 C 45.0000 %
674 01-10-2020 01:00:00 10.21667 C 45.0000 %
675 01-10-2020 02:00:00 9.56667 C 44.8333 %
Sensor: Nr:Datum:Temp:Feuchte:
Aussen-T/F 676 01-10-2020 03:00:00 9.5 C 44.0000 %
677 01-10-2020 04:00:00 9.71667 C 43.6667 %
678 01-10-2020 05:00:00 9.83333 C 42.3333 %
679 01-10-2020 06:00:00 9.15 C 43.0000 %
680 01-10-2020 07:00:00 9.06667 C 43.0000 %
681 01-10-2020 08:00:00 9.93333 C 42.5000 %
682 01-10-2020 09:00:00 10.96667 C 42.0000 %
683 01-10-2020 10:00:00 12.81667 C 40.5000 %
684 01-10-2020 11:00:00 15.4 C 35.3333 %
685 01-10-2020 12:00:00 17.1 C 33.0000 %
686 01-10-2020 13:00:00 17.83333 C 31.6667 %
687 01-10-2020 14:00:00 16.58333 C 32.5000 %
688 01-10-2020 15:00:00 14.76667 C 38.0000 %
689 01-10-2020 16:00:00 14.48333 C 39.3333 %
690 01-10-2020 17:00:00 14.98333 C 39.0000 %
691 01-10-2020 18:00:00 14.66667 C 38.8333 %
692 01-10-2020 19:00:00 12.43333 C 43.3333 %
693 01-10-2020 20:00:00 11.85 C 43.8333 %
694 01-10-2020 21:00:00 11.86667 C 43.0000 %
695 01-10-2020 22:00:00 10.8 C 44.3333 %
696 01-10-2020 23:00:00 10.65 C 44.6667 %
Sensor: Nr:Datum:Temp:Feuchte:
G-T/H 1 03-09-2020 00:00:00 18.33333 C 58.6667 %
2 03-09-2020 01:00:00 18.18333 C 59.0000 %
3 03-09-2020 02:00:00 18.06667 C 59.0000 %
4 03-09-2020 03:00:00 17.95 C 59.5000 %
5 03-09-2020 04:00:00 17.81667 C 60.0000 %
6 03-09-2020 05:00:00 17.68333 C 60.6667 %
7 03-09-2020 06:00:00 17.56667 C 61.0000 %
8 03-09-2020 07:00:00 17.45 C 61.0000 %
9 03-09-2020 08:00:00 16.5 C 59.0000 %
10 03-09-2020 09:00:00 16.25 C 59.5000 %
11 03-09-2020 10:00:00 16.53333 C 60.0000 %
12 03-09-2020 11:00:00 17.26667 C 59.5000 %
13 03-09-2020 12:00:00 17.98333 C 57.6667 %
14 03-09-2020 13:00:00 18.18333 C 58.0000 %
15 03-09-2020 14:00:00 17.98333 C 62.1667 %
16 03-09-2020 15:00:00 17.98333 C 62.8333 %
17 03-09-2020 16:00:00 17.95 C 65.8333 %
18 03-09-2020 17:00:00 17.91667 C 68.3333 %
19 03-09-2020 18:00:00 17.81667 C 70.3333 %
20 03-09-2020 19:00:00 17.78333 C 71.3333 %
21 03-09-2020 20:00:00 17.9 C 69.6667 %
22 03-09-2020 21:00:00 17.9 C 69.0000 %
23 03-09-2020 22:00:00 17.88333 C 68.5000 %
24 03-09-2020 23:00:00 17.88333 C 68.0000 %
25 04-09-2020 00:00:00 17.81667 C 68.0000 %
Sensor: Nr:Datum:Temp:Feuchte:
G-T/H 26 04-09-2020 01:00:00 17.8 C 68.0000 %
27 04-09-2020 02:00:00 17.8 C 68.0000 %
28 04-09-2020 03:00:00 17.73333 C 68.0000 %
29 04-09-2020 04:00:00 17.71667 C 68.0000 %
30 04-09-2020 05:00:00 17.7 C 68.0000 %
31 04-09-2020 06:00:00 17.7 C 68.0000 %
32 04-09-2020 07:00:00 17.7 C 68.0000 %
33 04-09-2020 08:00:00 17.7 C 68.0000 %
34 04-09-2020 09:00:00 17.71667 C 68.0000 %
35 04-09-2020 10:00:00 17.76667 C 68.0000 %
36 04-09-2020 11:00:00 17.8 C 68.0000 %
37 04-09-2020 12:00:00 17.95 C 67.6667 %
38 04-09-2020 13:00:00 18.05 C 67.0000 %
39 04-09-2020 14:00:00 18.21667 C 67.0000 %
40 04-09-2020 15:00:00 19.55 C 65.8333 %
41 04-09-2020 16:00:00 21.6 C 60.3333 %
42 04-09-2020 17:00:00 22.4 C 58.6667 %
43 04-09-2020 18:00:00 20.91667 C 63.1667 %
44 04-09-2020 19:00:00 20.35 C 64.0000 %
45 04-09-2020 20:00:00 20.11667 C 64.8333 %
46 04-09-2020 21:00:00 20 C 65.0000 %
47 04-09-2020 22:00:00 19.91667 C 65.8333 %
48 04-09-2020 23:00:00 19.86667 C 66.0000 %
49 05-09-2020 00:00:00 19.8 C 66.0000 %
50 05-09-2020 01:00:00 19.71667 C 66.8333 %
Sensor: Nr:Datum:Temp:Feuchte:
G-T/H 51 05-09-2020 02:00:00 19.66667 C 67.0000 %
52 05-09-2020 03:00:00 19.58333 C 67.0000 %
53 05-09-2020 04:00:00 19.51667 C 67.0000 %
54 05-09-2020 05:00:00 19.46667 C 67.0000 %
55 05-09-2020 06:00:00 19.4 C 67.0000 %
56 05-09-2020 07:00:00 19.33333 C 66.5000 %
57 05-09-2020 08:00:00 19.26667 C 65.8333 %
58 05-09-2020 09:00:00 19.21667 C 65.0000 %
59 05-09-2020 10:00:00 19.18333 C 65.0000 %
60 05-09-2020 11:00:00 19.15 C 65.0000 %
61 05-09-2020 12:00:00 19.15 C 65.0000 %
62 05-09-2020 13:00:00 19.15 C 64.0000 %
63 05-09-2020 14:00:00 19.2 C 64.0000 %
64 05-09-2020 15:00:00 19.15 C 64.0000 %
65 05-09-2020 16:00:00 19.18333 C 63.5000 %
66 05-09-2020 17:00:00 19.2 C 63.0000 %
67 05-09-2020 18:00:00 19.23333 C 63.0000 %
68 05-09-2020 19:00:00 19.18333 C 61.6667 %
69 05-09-2020 20:00:00 19.15 C 60.3333 %
70 05-09-2020 21:00:00 19.1 C 60.3333 %
71 05-09-2020 22:00:00 19 C 61.0000 %
72 05-09-2020 23:00:00 18.93333 C 61.6667 %
73 06-09-2020 00:00:00 18.85 C 62.0000 %
74 06-09-2020 01:00:00 18.73333 C 62.0000 %
75 06-09-2020 02:00:00 18.63333 C 62.0000 %
Sensor: Nr:Datum:Temp:Feuchte:
G-T/H 76 06-09-2020 03:00:00 18.48333 C 62.0000 %
77 06-09-2020 04:00:00 18.31667 C 62.0000 %
78 06-09-2020 05:00:00 18.13333 C 61.5000 %
79 06-09-2020 06:00:00 17.93333 C 61.6667 %
80 06-09-2020 07:00:00 17.75 C 61.0000 %
81 06-09-2020 08:00:00 17.58333 C 61.0000 %
82 06-09-2020 09:00:00 17.31667 C 60.0000 %
83 06-09-2020 10:00:00 17.25 C 60.6667 %
84 06-09-2020 11:00:00 17.2 C 61.6667 %
85 06-09-2020 12:00:00 17.41667 C 57.0000 %
86 06-09-2020 13:00:00 18.01667 C 51.0000 %
87 06-09-2020 14:00:00 18.55 C 48.3333 %
88 06-09-2020 15:00:00 18.65 C 46.6667 %
89 06-09-2020 16:00:00 18.41667 C 47.3333 %
90 06-09-2020 17:00:00 18.26667 C 50.3333 %
91 06-09-2020 18:00:00 18.2 C 52.5000 %
92 06-09-2020 19:00:00 18.18333 C 54.3333 %
93 06-09-2020 20:00:00 18.1 C 55.0000 %
94 06-09-2020 21:00:00 18.03333 C 55.8333 %
95 06-09-2020 22:00:00 18.01667 C 56.1667 %
96 06-09-2020 23:00:00 17.9 C 58.0000 %
97 07-09-2020 00:00:00 17.85 C 58.0000 %
98 07-09-2020 01:00:00 17.78333 C 58.6667 %
99 07-09-2020 02:00:00 17.68333 C 59.0000 %
100 07-09-2020 03:00:00 17.56667 C 59.0000 %
Sensor: Nr:Datum:Temp:Feuchte:
G-T/H 101 07-09-2020 04:00:00 17.45 C 59.0000 %
102 07-09-2020 05:00:00 17.28333 C 59.0000 %
103 07-09-2020 06:00:00 17.16667 C 59.0000 %
104 07-09-2020 07:00:00 17.01667 C 59.8333 %
105 07-09-2020 08:00:00 15.18333 C 55.6667 %
106 07-09-2020 09:00:00 14.51667 C 59.0000 %
107 07-09-2020 10:00:00 14.73333 C 61.1667 %
108 07-09-2020 11:00:00 15.56667 C 61.0000 %
109 07-09-2020 12:00:00 16.3 C 58.8333 %
110 07-09-2020 13:00:00 16.93333 C 54.0000 %
111 07-09-2020 14:00:00 17.53333 C 49.1667 %
112 07-09-2020 15:00:00 18.13333 C 45.6667 %
113 07-09-2020 16:00:00 18.56667 C 44.3333 %
114 07-09-2020 17:00:00 19.1 C 44.1667 %
115 07-09-2020 18:00:00 18.53333 C 48.5000 %
116 07-09-2020 19:00:00 18.28333 C 51.0000 %
117 07-09-2020 20:00:00 18.03333 C 52.8333 %
118 07-09-2020 21:00:00 17.88333 C 54.5000 %
119 07-09-2020 22:00:00 17.75 C 55.0000 %
120 07-09-2020 23:00:00 17.66667 C 56.0000 %
121 08-09-2020 00:00:00 17.53333 C 56.0000 %
122 08-09-2020 01:00:00 17.43333 C 56.6667 %
123 08-09-2020 02:00:00 17.25 C 57.0000 %
124 08-09-2020 03:00:00 17.18333 C 57.0000 %
125 08-09-2020 04:00:00 17.03333 C 57.8333 %
Sensor: Nr:Datum:Temp:Feuchte:
G-T/H 126 08-09-2020 05:00:00 16.88333 C 58.8333 %
127 08-09-2020 06:00:00 16.76667 C 59.0000 %
128 08-09-2020 07:00:00 16.51667 C 58.5000 %
129 08-09-2020 08:00:00 14.85 C 57.0000 %
130 08-09-2020 09:00:00 14.5 C 59.5000 %
131 08-09-2020 10:00:00 15.05 C 60.5000 %
132 08-09-2020 11:00:00 16.4 C 57.5000 %
133 08-09-2020 12:00:00 17.7 C 53.0000 %
134 08-09-2020 13:00:00 18.58333 C 50.3333 %
135 08-09-2020 14:00:00 19.31667 C 48.5000 %
136 08-09-2020 15:00:00 20.03333 C 46.3333 %
137 08-09-2020 16:00:00 20 C 47.5000 %
138 08-09-2020 17:00:00 19.23333 C 51.1667 %
139 08-09-2020 18:00:00 18.95 C 53.1667 %
140 08-09-2020 19:00:00 18.83333 C 54.5000 %
141 08-09-2020 20:00:00 18.65 C 55.5000 %
142 08-09-2020 21:00:00 18.55 C 56.3333 %
143 08-09-2020 22:00:00 18.46667 C 57.0000 %
144 08-09-2020 23:00:00 18.38333 C 57.5000 %
145 09-09-2020 00:00:00 18.31667 C 58.0000 %
146 09-09-2020 01:00:00 18.28333 C 58.3333 %
147 09-09-2020 02:00:00 18.2 C 59.0000 %
148 09-09-2020 03:00:00 18.11667 C 59.0000 %
149 09-09-2020 04:00:00 18.05 C 59.0000 %
150 09-09-2020 05:00:00 17.93333 C 59.6667 %
Sensor: Nr:Datum:Temp:Feuchte:
G-T/H 151 09-09-2020 06:00:00 17.86667 C 60.0000 %
152 09-09-2020 07:00:00 17.73333 C 60.6667 %
153 09-09-2020 08:00:00 17.65 C 61.0000 %
154 09-09-2020 09:00:00 17.6 C 61.0000 %
155 09-09-2020 10:00:00 17.58333 C 61.0000 %
156 09-09-2020 11:00:00 17.6 C 61.1667 %
157 09-09-2020 12:00:00 17.68333 C 62.0000 %
158 09-09-2020 13:00:00 17.7 C 62.0000 %
159 09-09-2020 14:00:00 17.83333 C 62.8333 %
160 09-09-2020 15:00:00 17.96667 C 62.3333 %
161 09-09-2020 16:00:00 18.08333 C 62.0000 %
162 09-09-2020 17:00:00 18.23333 C 62.0000 %
163 09-09-2020 18:00:00 18.35 C 62.8333 %
164 09-09-2020 19:00:00 18.46667 C 63.0000 %
165 09-09-2020 20:00:00 18.5 C 63.0000 %
166 09-09-2020 21:00:00 18.55 C 63.0000 %
167 09-09-2020 22:00:00 18.58333 C 63.0000 %
168 09-09-2020 23:00:00 18.66667 C 63.0000 %
169 10-09-2020 00:00:00 18.7 C 63.0000 %
170 10-09-2020 01:00:00 18.7 C 63.0000 %
171 10-09-2020 02:00:00 18.7 C 63.0000 %
172 10-09-2020 03:00:00 18.7 C 63.3333 %
173 10-09-2020 04:00:00 18.63333 C 64.0000 %
174 10-09-2020 05:00:00 18.61667 C 64.0000 %
175 10-09-2020 06:00:00 18.53333 C 63.8333 %
Sensor: Nr:Datum:Temp:Feuchte:
G-T/H 176 10-09-2020 07:00:00 17.96667 C 63.5000 %
177 10-09-2020 08:00:00 17.71667 C 63.5000 %
178 10-09-2020 09:00:00 17.7 C 63.8333 %
179 10-09-2020 10:00:00 17.7 C 61.6667 %
180 10-09-2020 11:00:00 17.88333 C 59.1667 %
181 10-09-2020 12:00:00 18.25 C 56.1667 %
182 10-09-2020 13:00:00 18.51667 C 52.1667 %
183 10-09-2020 14:00:00 18.86667 C 50.8333 %
184 10-09-2020 15:00:00 19.38333 C 49.6667 %
185 10-09-2020 16:00:00 19.58333 C 52.0000 %
186 10-09-2020 17:00:00 19.36667 C 53.8333 %
187 10-09-2020 18:00:00 19.3 C 55.0000 %
188 10-09-2020 19:00:00 19.2 C 55.8333 %
189 10-09-2020 20:00:00 19.08333 C 56.6667 %
190 10-09-2020 21:00:00 18.93333 C 57.6667 %
191 10-09-2020 22:00:00 18.88333 C 58.0000 %
192 10-09-2020 23:00:00 18.73333 C 58.0000 %
193 11-09-2020 00:00:00 18.65 C 58.0000 %
194 11-09-2020 01:00:00 18.55 C 58.0000 %
195 11-09-2020 02:00:00 18.43333 C 58.0000 %
196 11-09-2020 03:00:00 18.26667 C 58.0000 %
197 11-09-2020 04:00:00 18.15 C 58.0000 %
198 11-09-2020 05:00:00 17.98333 C 58.3333 %
199 11-09-2020 06:00:00 17.83333 C 59.0000 %
200 11-09-2020 07:00:00 17.58333 C 58.5000 %
Sensor: Nr:Datum:Temp:Feuchte:
G-T/H 201 11-09-2020 08:00:00 15.76667 C 55.5000 %
202 11-09-2020 09:00:00 15.21667 C 58.0000 %
203 11-09-2020 10:00:00 15.4 C 60.3333 %
204 11-09-2020 11:00:00 16.2 C 59.0000 %
205 11-09-2020 12:00:00 17.05 C 55.5000 %
206 11-09-2020 13:00:00 17.91667 C 50.8333 %
207 11-09-2020 14:00:00 18.83333 C 48.8333 %
208 11-09-2020 15:00:00 19.6 C 48.1667 %
209 11-09-2020 16:00:00 20.08333 C 47.5000 %
210 11-09-2020 17:00:00 20.45 C 47.0000 %
211 11-09-2020 18:00:00 20.56667 C 48.3333 %
212 11-09-2020 19:00:00 19.8 C 52.0000 %
213 11-09-2020 20:00:00 19.01667 C 53.5000 %
214 11-09-2020 21:00:00 18.76667 C 54.6667 %
215 11-09-2020 22:00:00 18.63333 C 55.1667 %
216 11-09-2020 23:00:00 18.5 C 56.0000 %
217 12-09-2020 00:00:00 18.38333 C 56.0000 %
218 12-09-2020 01:00:00 18.3 C 56.6667 %
219 12-09-2020 02:00:00 18.16667 C 57.0000 %
220 12-09-2020 03:00:00 18.05 C 57.0000 %
221 12-09-2020 04:00:00 17.91667 C 57.8333 %
222 12-09-2020 05:00:00 17.76667 C 58.8333 %
223 12-09-2020 06:00:00 17.65 C 59.0000 %
224 12-09-2020 07:00:00 17.53333 C 59.0000 %
225 12-09-2020 08:00:00 17.38333 C 59.0000 %
Sensor: Nr:Datum:Temp:Feuchte:
G-T/H 226 12-09-2020 09:00:00 17.31667 C 59.5000 %
227 12-09-2020 10:00:00 17.28333 C 60.0000 %
228 12-09-2020 11:00:00 17.25 C 60.0000 %
229 12-09-2020 12:00:00 17.26667 C 60.0000 %
230 12-09-2020 13:00:00 17.35 C 60.6667 %
231 12-09-2020 14:00:00 17.5 C 61.0000 %
232 12-09-2020 15:00:00 17.58333 C 61.0000 %
233 12-09-2020 16:00:00 17.71667 C 61.0000 %
234 12-09-2020 17:00:00 17.81667 C 61.0000 %
235 12-09-2020 18:00:00 17.93333 C 60.6667 %
236 12-09-2020 19:00:00 18.01667 C 60.6667 %
237 12-09-2020 20:00:00 18.08333 C 61.0000 %
238 12-09-2020 21:00:00 18.1 C 61.0000 %
239 12-09-2020 22:00:00 18.1 C 61.0000 %
240 12-09-2020 23:00:00 18.1 C 61.0000 %
241 13-09-2020 00:00:00 18.08333 C 61.0000 %
242 13-09-2020 01:00:00 18 C 61.0000 %
243 13-09-2020 02:00:00 17.95 C 61.5000 %
244 13-09-2020 03:00:00 17.9 C 62.0000 %
245 13-09-2020 04:00:00 17.81667 C 62.0000 %
246 13-09-2020 05:00:00 17.7 C 62.0000 %
247 13-09-2020 06:00:00 17.63333 C 62.0000 %
248 13-09-2020 07:00:00 17.51667 C 62.0000 %
249 13-09-2020 08:00:00 17.4 C 62.0000 %
250 13-09-2020 09:00:00 17.3 C 62.0000 %
Sensor: Nr:Datum:Temp:Feuchte:
G-T/H 251 13-09-2020 10:00:00 17.2 C 62.1667 %
252 13-09-2020 11:00:00 17.2 C 63.0000 %
253 13-09-2020 12:00:00 17.2 C 63.0000 %
254 13-09-2020 13:00:00 17.25 C 63.0000 %
255 13-09-2020 14:00:00 18.11667 C 60.8333 %
256 13-09-2020 15:00:00 20.66667 C 49.5000 %
257 13-09-2020 16:00:00 21.91667 C 45.5000 %
258 13-09-2020 17:00:00 20.53333 C 50.1667 %
259 13-09-2020 18:00:00 19.81667 C 54.3333 %
260 13-09-2020 19:00:00 19.51667 C 55.8333 %
261 13-09-2020 20:00:00 19.33333 C 57.0000 %
262 13-09-2020 21:00:00 19.16667 C 57.5000 %
263 13-09-2020 22:00:00 19.05 C 58.0000 %
264 13-09-2020 23:00:00 18.93333 C 58.6667 %
265 14-09-2020 00:00:00 18.85 C 59.0000 %
266 14-09-2020 01:00:00 18.73333 C 59.0000 %
267 14-09-2020 02:00:00 18.63333 C 59.0000 %
268 14-09-2020 03:00:00 18.5 C 59.0000 %
269 14-09-2020 04:00:00 18.35 C 59.0000 %
270 14-09-2020 05:00:00 18.26667 C 59.6667 %
271 14-09-2020 06:00:00 18.11667 C 60.0000 %
272 14-09-2020 07:00:00 17.96667 C 60.3333 %
273 14-09-2020 08:00:00 17.86667 C 61.0000 %
274 14-09-2020 09:00:00 17.73333 C 61.0000 %
275 14-09-2020 10:00:00 17.68333 C 61.0000 %
Sensor: Nr:Datum:Temp:Feuchte:
G-T/H 276 14-09-2020 11:00:00 17.63333 C 62.0000 %
277 14-09-2020 12:00:00 17.68333 C 62.0000 %
278 14-09-2020 13:00:00 17.73333 C 62.6667 %
279 14-09-2020 14:00:00 20.5 C 56.6667 %
280 14-09-2020 15:00:00 23.5 C 43.5000 %
281 14-09-2020 16:00:00 24.3 C 40.5000 %
282 14-09-2020 17:00:00 24.11667 C 47.0000 %
283 14-09-2020 18:00:00 24.31667 C 45.1667 %
284 14-09-2020 19:00:00 22.68333 C 49.0000 %
285 14-09-2020 20:00:00 21.68333 C 52.5000 %
286 14-09-2020 21:00:00 21.23333 C 54.0000 %
287 14-09-2020 22:00:00 20.91667 C 55.5000 %
288 14-09-2020 23:00:00 20.7 C 56.0000 %
289 15-09-2020 00:00:00 20.46667 C 56.8333 %
290 15-09-2020 01:00:00 20.33333 C 57.0000 %
291 15-09-2020 02:00:00 20.15 C 57.0000 %
292 15-09-2020 03:00:00 19.96667 C 57.3333 %
293 15-09-2020 04:00:00 19.78333 C 58.0000 %
294 15-09-2020 05:00:00 19.63333 C 58.0000 %
295 15-09-2020 06:00:00 19.48333 C 58.0000 %
296 15-09-2020 07:00:00 19.31667 C 58.0000 %
297 15-09-2020 08:00:00 19.15 C 58.0000 %
298 15-09-2020 09:00:00 19.06667 C 58.0000 %
299 15-09-2020 10:00:00 18.91667 C 59.5000 %
300 15-09-2020 11:00:00 18.9 C 60.0000 %
Sensor: Nr:Datum:Temp:Feuchte:
G-T/H 301 15-09-2020 12:00:00 18.9 C 60.1667 %
302 15-09-2020 13:00:00 18.88333 C 61.0000 %
303 15-09-2020 14:00:00 19.03333 C 60.0000 %
304 15-09-2020 15:00:00 19.1 C 59.6667 %
305 15-09-2020 16:00:00 19.21667 C 59.0000 %
306 15-09-2020 17:00:00 19.38333 C 58.0000 %
307 15-09-2020 18:00:00 19.51667 C 57.3333 %
308 15-09-2020 19:00:00 19.55 C 58.0000 %
309 15-09-2020 20:00:00 19.5 C 58.3333 %
310 15-09-2020 21:00:00 19.53333 C 59.0000 %
311 15-09-2020 22:00:00 19.56667 C 59.0000 %
312 15-09-2020 23:00:00 19.51667 C 59.5000 %
313 16-09-2020 00:00:00 19.51667 C 60.0000 %
314 16-09-2020 01:00:00 19.5 C 60.0000 %
315 16-09-2020 02:00:00 19.5 C 60.0000 %
316 16-09-2020 03:00:00 19.41667 C 60.6667 %
317 16-09-2020 04:00:00 19.33333 C 60.5000 %
318 16-09-2020 05:00:00 19.28333 C 60.8333 %
319 16-09-2020 06:00:00 19.16667 C 61.0000 %
320 16-09-2020 07:00:00 19.1 C 61.0000 %
321 16-09-2020 08:00:00 19.01667 C 61.0000 %
322 16-09-2020 09:00:00 18.91667 C 61.8333 %
323 16-09-2020 10:00:00 18.9 C 62.0000 %
324 16-09-2020 11:00:00 18.9 C 62.0000 %
325 16-09-2020 12:00:00 18.9 C 62.0000 %
Sensor: Nr:Datum:Temp:Feuchte:
G-T/H 326 16-09-2020 13:00:00 19.01667 C 61.3333 %
327 16-09-2020 14:00:00 19.06667 C 62.0000 %
328 16-09-2020 15:00:00 19.21667 C 61.5000 %
329 16-09-2020 16:00:00 19.35 C 61.8333 %
330 16-09-2020 17:00:00 19.48333 C 61.6667 %
331 16-09-2020 18:00:00 19.55 C 62.1667 %
332 16-09-2020 19:00:00 19.6 C 63.0000 %
333 16-09-2020 20:00:00 19.63333 C 63.0000 %
334 16-09-2020 21:00:00 19.7 C 63.0000 %
335 16-09-2020 22:00:00 19.7 C 63.0000 %
336 16-09-2020 23:00:00 19.7 C 63.0000 %
337 17-09-2020 00:00:00 19.7 C 63.0000 %
338 17-09-2020 01:00:00 19.7 C 63.0000 %
339 17-09-2020 02:00:00 19.61667 C 63.0000 %
340 17-09-2020 03:00:00 19.58333 C 63.0000 %
341 17-09-2020 04:00:00 19.5 C 63.0000 %
342 17-09-2020 05:00:00 19.48333 C 62.6667 %
343 17-09-2020 06:00:00 19.38333 C 62.0000 %
344 17-09-2020 07:00:00 19.33333 C 62.0000 %
345 17-09-2020 08:00:00 19.28333 C 62.0000 %
346 17-09-2020 09:00:00 19.21667 C 61.0000 %
347 17-09-2020 10:00:00 19.15 C 60.8333 %
348 17-09-2020 11:00:00 19.1 C 60.0000 %
349 17-09-2020 12:00:00 19.05 C 59.0000 %
350 17-09-2020 13:00:00 19.05 C 58.5000 %
Sensor: Nr:Datum:Temp:Feuchte:
G-T/H 351 17-09-2020 14:00:00 19.03333 C 58.0000 %
352 17-09-2020 15:00:00 19.01667 C 58.0000 %
353 17-09-2020 16:00:00 19.01667 C 58.0000 %
354 17-09-2020 17:00:00 19.03333 C 57.6667 %
355 17-09-2020 18:00:00 19.06667 C 56.6667 %
356 17-09-2020 19:00:00 19.01667 C 57.0000 %
357 17-09-2020 20:00:00 18.9 C 57.5000 %
358 17-09-2020 21:00:00 18.85 C 57.0000 %
359 17-09-2020 22:00:00 18.78333 C 57.0000 %
360 17-09-2020 23:00:00 18.71667 C 57.0000 %
361 18-09-2020 00:00:00 18.58333 C 57.0000 %
362 18-09-2020 01:00:00 18.5 C 57.1667 %
363 18-09-2020 02:00:00 18.38333 C 58.0000 %
364 18-09-2020 03:00:00 18.25 C 58.0000 %
365 18-09-2020 04:00:00 18.1 C 58.0000 %
366 18-09-2020 05:00:00 17.95 C 58.0000 %
367 18-09-2020 06:00:00 17.78333 C 58.0000 %
368 18-09-2020 07:00:00 17.66667 C 58.0000 %
369 18-09-2020 08:00:00 17.53333 C 58.0000 %
370 18-09-2020 09:00:00 17.41667 C 58.5000 %
371 18-09-2020 10:00:00 17.31667 C 59.0000 %
372 18-09-2020 11:00:00 17.28333 C 59.0000 %
373 18-09-2020 12:00:00 17.25 C 59.0000 %
374 18-09-2020 13:00:00 17.26667 C 59.0000 %
375 18-09-2020 14:00:00 17.36667 C 59.1667 %
Sensor: Nr:Datum:Temp:Feuchte:
G-T/H 376 18-09-2020 15:00:00 17.43333 C 60.0000 %
377 18-09-2020 16:00:00 17.48333 C 60.0000 %
378 18-09-2020 17:00:00 17.56667 C 60.0000 %
379 18-09-2020 18:00:00 17.66667 C 60.0000 %
380 18-09-2020 19:00:00 17.7 C 60.0000 %
381 18-09-2020 20:00:00 17.7 C 60.0000 %
382 18-09-2020 21:00:00 17.7 C 60.0000 %
383 18-09-2020 22:00:00 17.68333 C 60.0000 %
384 18-09-2020 23:00:00 17.61667 C 59.0000 %
385 19-09-2020 00:00:00 17.6 C 59.0000 %
386 19-09-2020 01:00:00 17.51667 C 59.1667 %
387 19-09-2020 02:00:00 17.45 C 60.0000 %
388 19-09-2020 03:00:00 17.38333 C 60.0000 %
389 19-09-2020 04:00:00 17.25 C 60.0000 %
390 19-09-2020 05:00:00 17.13333 C 60.0000 %
391 19-09-2020 06:00:00 16.98333 C 60.0000 %
392 19-09-2020 07:00:00 16.9 C 60.0000 %
393 19-09-2020 08:00:00 16.78333 C 60.1667 %
394 19-09-2020 09:00:00 16.63333 C 60.5000 %
395 19-09-2020 10:00:00 16.55 C 60.0000 %
396 19-09-2020 11:00:00 16.5 C 61.0000 %
397 19-09-2020 12:00:00 16.51667 C 61.0000 %
398 19-09-2020 13:00:00 17.1 C 56.3333 %
399 19-09-2020 14:00:00 19.08333 C 43.8333 %
400 19-09-2020 15:00:00 20.28333 C 40.5000 %
Sensor: Nr:Datum:Temp:Feuchte:
G-T/H 401 19-09-2020 16:00:00 20.83333 C 38.1667 %
402 19-09-2020 17:00:00 21.26667 C 36.0000 %
403 19-09-2020 18:00:00 21.43333 C 34.8333 %
404 19-09-2020 19:00:00 20.03333 C 38.8333 %
405 19-09-2020 20:00:00 19.03333 C 40.5000 %
406 19-09-2020 21:00:00 18.38333 C 42.0000 %
407 19-09-2020 22:00:00 18 C 43.5000 %
408 19-09-2020 23:00:00 17.65 C 45.0000 %
409 20-09-2020 00:00:00 17.3 C 46.0000 %
410 20-09-2020 01:00:00 16.76667 C 47.5000 %
411 20-09-2020 02:00:00 16.31667 C 48.0000 %
412 20-09-2020 03:00:00 15.78333 C 49.0000 %
413 20-09-2020 04:00:00 15.25 C 49.0000 %
414 20-09-2020 05:00:00 14.88333 C 50.6667 %
415 20-09-2020 06:00:00 14.46667 C 51.6667 %
416 20-09-2020 07:00:00 14.08333 C 52.1667 %
417 20-09-2020 08:00:00 13.88333 C 55.1667 %
418 20-09-2020 09:00:00 14 C 56.3333 %
419 20-09-2020 10:00:00 14.45 C 57.6667 %
420 20-09-2020 11:00:00 15.25 C 57.0000 %
421 20-09-2020 12:00:00 16.53333 C 52.6667 %
422 20-09-2020 13:00:00 17.9 C 47.1667 %
423 20-09-2020 14:00:00 18.8 C 42.5000 %
424 20-09-2020 15:00:00 18.86667 C 44.3333 %
425 20-09-2020 16:00:00 18.2 C 47.8333 %
Sensor: Nr:Datum:Temp:Feuchte:
G-T/H 426 20-09-2020 17:00:00 17.95 C 49.8333 %
427 20-09-2020 18:00:00 17.75 C 51.3333 %
428 20-09-2020 19:00:00 17.6 C 52.1667 %
429 20-09-2020 20:00:00 17.48333 C 53.0000 %
430 20-09-2020 21:00:00 17.38333 C 53.0000 %
431 20-09-2020 22:00:00 17.28333 C 53.8333 %
432 20-09-2020 23:00:00 17.2 C 54.0000 %
433 21-09-2020 00:00:00 17.13333 C 54.0000 %
434 21-09-2020 01:00:00 17.01667 C 54.0000 %
435 21-09-2020 02:00:00 16.88333 C 55.0000 %
436 21-09-2020 03:00:00 16.76667 C 55.8333 %
437 21-09-2020 04:00:00 16.63333 C 56.0000 %
438 21-09-2020 05:00:00 16.5 C 56.0000 %
439 21-09-2020 06:00:00 16.36667 C 56.0000 %
440 21-09-2020 07:00:00 16.21667 C 56.0000 %
441 21-09-2020 08:00:00 16.15 C 56.1667 %
442 21-09-2020 09:00:00 16.01667 C 57.0000 %
443 21-09-2020 10:00:00 15.93333 C 57.6667 %
444 21-09-2020 11:00:00 15.88333 C 58.6667 %
445 21-09-2020 12:00:00 15.86667 C 59.0000 %
446 21-09-2020 13:00:00 15.91667 C 59.0000 %
447 21-09-2020 14:00:00 16 C 58.8333 %
448 21-09-2020 15:00:00 16.05 C 58.0000 %
449 21-09-2020 16:00:00 16.15 C 58.0000 %
450 21-09-2020 17:00:00 16.21667 C 58.0000 %
Sensor: Nr:Datum:Temp:Feuchte:
G-T/H 451 21-09-2020 18:00:00 16.31667 C 58.0000 %
452 21-09-2020 19:00:00 16.33333 C 58.0000 %
453 21-09-2020 20:00:00 16.4 C 58.8333 %
454 21-09-2020 21:00:00 16.4 C 59.0000 %
455 21-09-2020 22:00:00 16.4 C 59.1667 %
456 21-09-2020 23:00:00 16.4 C 60.0000 %
457 22-09-2020 00:00:00 16.4 C 60.0000 %
458 22-09-2020 01:00:00 16.38333 C 60.0000 %
459 22-09-2020 02:00:00 16.31667 C 60.0000 %
460 22-09-2020 03:00:00 16.2 C 60.0000 %
461 22-09-2020 04:00:00 16.18333 C 60.0000 %
462 22-09-2020 05:00:00 16.06667 C 60.0000 %
463 22-09-2020 06:00:00 16 C 60.0000 %
464 22-09-2020 07:00:00 15.88333 C 61.0000 %
465 22-09-2020 08:00:00 15.81667 C 61.3333 %
466 22-09-2020 09:00:00 15.73333 C 62.0000 %
467 22-09-2020 10:00:00 15.65 C 62.0000 %
468 22-09-2020 11:00:00 15.61667 C 62.0000 %
469 22-09-2020 12:00:00 15.68333 C 63.0000 %
470 22-09-2020 13:00:00 15.76667 C 63.0000 %
471 22-09-2020 14:00:00 15.81667 C 62.6667 %
472 22-09-2020 15:00:00 16.86667 C 61.0000 %
473 22-09-2020 16:00:00 20.3 C 49.3333 %
474 22-09-2020 17:00:00 21.25 C 39.6667 %
475 22-09-2020 18:00:00 21.11667 C 42.8333 %
Sensor: Nr:Datum:Temp:Feuchte:
G-T/H 476 22-09-2020 19:00:00 19.66667 C 47.1667 %
477 22-09-2020 20:00:00 18.66667 C 50.6667 %
478 22-09-2020 21:00:00 18.25 C 52.3333 %
479 22-09-2020 22:00:00 18.05 C 53.3333 %
480 22-09-2020 23:00:00 17.93333 C 54.6667 %
481 23-09-2020 00:00:00 17.78333 C 55.6667 %
482 23-09-2020 01:00:00 17.7 C 56.0000 %
483 23-09-2020 02:00:00 17.6 C 56.5000 %
484 23-09-2020 03:00:00 17.5 C 57.0000 %
485 23-09-2020 04:00:00 17.45 C 57.0000 %
486 23-09-2020 05:00:00 17.33333 C 57.3333 %
487 23-09-2020 06:00:00 17.23333 C 58.0000 %
488 23-09-2020 07:00:00 17.18333 C 58.0000 %
489 23-09-2020 08:00:00 17.1 C 58.0000 %
490 23-09-2020 09:00:00 17.01667 C 58.1667 %
491 23-09-2020 10:00:00 17 C 59.0000 %
492 23-09-2020 11:00:00 17 C 59.0000 %
493 23-09-2020 12:00:00 17 C 59.0000 %
494 23-09-2020 13:00:00 17.06667 C 59.0000 %
495 23-09-2020 14:00:00 17.18333 C 59.0000 %
496 23-09-2020 15:00:00 17.25 C 59.0000 %
497 23-09-2020 16:00:00 17.38333 C 59.0000 %
498 23-09-2020 17:00:00 17.5 C 59.0000 %
499 23-09-2020 18:00:00 17.55 C 59.0000 %
500 23-09-2020 19:00:00 17.58333 C 59.6667 %
Sensor: Nr:Datum:Temp:Feuchte:
G-T/H 501 23-09-2020 20:00:00 17.6 C 60.0000 %
502 23-09-2020 21:00:00 17.65 C 60.0000 %
503 23-09-2020 22:00:00 17.7 C 60.1667 %
504 23-09-2020 23:00:00 17.7 C 61.0000 %
505 24-09-2020 00:00:00 17.7 C 61.0000 %
506 24-09-2020 01:00:00 17.7 C 61.0000 %
507 24-09-2020 02:00:00 17.7 C 61.3333 %
508 24-09-2020 03:00:00 17.68333 C 62.0000 %
509 24-09-2020 04:00:00 17.61667 C 62.0000 %
510 24-09-2020 05:00:00 17.6 C 62.0000 %
511 24-09-2020 06:00:00 17.56667 C 62.0000 %
512 24-09-2020 07:00:00 17.5 C 62.0000 %
513 24-09-2020 08:00:00 17.41667 C 62.0000 %
514 24-09-2020 09:00:00 17.35 C 62.0000 %
515 24-09-2020 10:00:00 17.25 C 62.0000 %
516 24-09-2020 11:00:00 17.2 C 62.0000 %
517 24-09-2020 12:00:00 17.18333 C 61.6667 %
518 24-09-2020 13:00:00 17.13333 C 61.0000 %
519 24-09-2020 14:00:00 17.6 C 55.8333 %
520 24-09-2020 15:00:00 18.2 C 49.1667 %
521 24-09-2020 16:00:00 18.83333 C 48.3333 %
522 24-09-2020 17:00:00 18.83333 C 49.6667 %
523 24-09-2020 18:00:00 18.46667 C 52.0000 %
524 24-09-2020 19:00:00 18.21667 C 53.8333 %
525 24-09-2020 20:00:00 18.06667 C 55.1667 %
Sensor: Nr:Datum:Temp:Feuchte:
G-T/H 526 24-09-2020 21:00:00 17.96667 C 56.3333 %
527 24-09-2020 22:00:00 17.85 C 57.1667 %
528 24-09-2020 23:00:00 17.73333 C 58.0000 %
529 25-09-2020 00:00:00 17.68333 C 58.0000 %
530 25-09-2020 01:00:00 17.58333 C 59.0000 %
531 25-09-2020 02:00:00 17.51667 C 59.0000 %
532 25-09-2020 03:00:00 17.41667 C 59.1667 %
533 25-09-2020 04:00:00 17.31667 C 60.0000 %
534 25-09-2020 05:00:00 17.18333 C 60.0000 %
535 25-09-2020 06:00:00 17.1 C 60.0000 %
536 25-09-2020 07:00:00 16.95 C 60.5000 %
537 25-09-2020 08:00:00 16.83333 C 61.0000 %
538 25-09-2020 09:00:00 16.63333 C 60.1667 %
539 25-09-2020 10:00:00 15.7 C 54.1667 %
540 25-09-2020 11:00:00 15.53333 C 53.5000 %
541 25-09-2020 12:00:00 15.51667 C 52.1667 %
542 25-09-2020 13:00:00 15.51667 C 51.0000 %
543 25-09-2020 14:00:00 15.45 C 55.5000 %
544 25-09-2020 15:00:00 15.58333 C 56.5000 %
545 25-09-2020 16:00:00 15.7 C 57.0000 %
546 25-09-2020 17:00:00 15.75 C 55.1667 %
547 25-09-2020 18:00:00 15.21667 C 55.1667 %
548 25-09-2020 19:00:00 15.05 C 56.3333 %
549 25-09-2020 20:00:00 15.46667 C 57.0000 %
550 25-09-2020 21:00:00 15.6 C 58.0000 %
Sensor: Nr:Datum:Temp:Feuchte:
G-T/H 551 25-09-2020 22:00:00 15.61667 C 58.5000 %
552 25-09-2020 23:00:00 15.61667 C 59.0000 %
553 26-09-2020 00:00:00 15.6 C 59.3333 %
554 26-09-2020 01:00:00 15.6 C 60.0000 %
555 26-09-2020 02:00:00 15.51667 C 60.0000 %
556 26-09-2020 03:00:00 15.46667 C 60.0000 %
557 26-09-2020 04:00:00 15.4 C 60.3333 %
558 26-09-2020 05:00:00 15.3 C 61.0000 %
559 26-09-2020 06:00:00 15.23333 C 61.0000 %
560 26-09-2020 07:00:00 15.18333 C 61.0000 %
561 26-09-2020 08:00:00 15.1 C 61.0000 %
562 26-09-2020 09:00:00 15.08333 C 61.8333 %
563 26-09-2020 10:00:00 15 C 62.0000 %
564 26-09-2020 11:00:00 15 C 62.0000 %
565 26-09-2020 12:00:00 15 C 63.0000 %
566 26-09-2020 13:00:00 15 C 63.0000 %
567 26-09-2020 14:00:00 15 C 63.0000 %
568 26-09-2020 15:00:00 15 C 64.0000 %
569 26-09-2020 16:00:00 15 C 64.0000 %
570 26-09-2020 17:00:00 15 C 64.0000 %
571 26-09-2020 18:00:00 14.9 C 65.0000 %
572 26-09-2020 19:00:00 14.9 C 65.0000 %
573 26-09-2020 20:00:00 14.9 C 65.3333 %
574 26-09-2020 21:00:00 14.88333 C 66.0000 %
575 26-09-2020 22:00:00 14.8 C 66.0000 %
Sensor: Nr:Datum:Temp:Feuchte:
G-T/H 576 26-09-2020 23:00:00 14.8 C 66.0000 %
577 27-09-2020 00:00:00 14.76667 C 66.0000 %
578 27-09-2020 01:00:00 14.7 C 66.0000 %
579 27-09-2020 02:00:00 14.65 C 66.0000 %
580 27-09-2020 03:00:00 14.6 C 66.0000 %
581 27-09-2020 04:00:00 14.55 C 66.0000 %
582 27-09-2020 05:00:00 14.5 C 66.8333 %
583 27-09-2020 06:00:00 14.5 C 67.0000 %
584 27-09-2020 07:00:00 14.41667 C 67.0000 %
585 27-09-2020 08:00:00 14.4 C 67.0000 %
586 27-09-2020 09:00:00 14.4 C 67.0000 %
587 27-09-2020 10:00:00 14.4 C 67.0000 %
588 27-09-2020 11:00:00 14.45 C 67.0000 %
589 27-09-2020 12:00:00 14.5 C 67.0000 %
590 27-09-2020 13:00:00 14.53333 C 68.0000 %
591 27-09-2020 14:00:00 14.63333 C 68.0000 %
592 27-09-2020 15:00:00 14.65 C 68.0000 %
593 27-09-2020 16:00:00 14.7 C 68.0000 %
594 27-09-2020 17:00:00 14.75 C 68.0000 %
595 27-09-2020 18:00:00 14.8 C 68.0000 %
596 27-09-2020 19:00:00 14.8 C 68.0000 %
597 27-09-2020 20:00:00 14.8 C 68.0000 %
598 27-09-2020 21:00:00 14.8 C 68.0000 %
599 27-09-2020 22:00:00 14.8 C 68.0000 %
600 27-09-2020 23:00:00 14.8 C 68.3333 %
Sensor: Nr:Datum:Temp:Feuchte:
G-T/H 601 28-09-2020 00:00:00 14.8 C 68.8333 %
602 28-09-2020 01:00:00 14.8 C 69.0000 %
603 28-09-2020 02:00:00 14.8 C 69.0000 %
604 28-09-2020 03:00:00 14.8 C 69.0000 %
605 28-09-2020 04:00:00 14.71667 C 69.0000 %
606 28-09-2020 05:00:00 14.7 C 69.0000 %
607 28-09-2020 06:00:00 14.7 C 69.0000 %
608 28-09-2020 07:00:00 14.7 C 69.0000 %
609 28-09-2020 08:00:00 14.61667 C 69.0000 %
610 28-09-2020 09:00:00 14.6 C 69.0000 %
611 28-09-2020 10:00:00 14.6 C 69.0000 %
612 28-09-2020 11:00:00 14.7 C 69.0000 %
613 28-09-2020 12:00:00 14.7 C 69.0000 %
614 28-09-2020 13:00:00 14.73333 C 69.0000 %
615 28-09-2020 14:00:00 14.78333 C 69.0000 %
616 28-09-2020 15:00:00 14.81667 C 69.0000 %
617 28-09-2020 16:00:00 14.88333 C 69.0000 %
618 28-09-2020 17:00:00 14.9 C 69.0000 %
619 28-09-2020 18:00:00 15 C 68.0000 %
620 28-09-2020 19:00:00 14.95 C 68.1667 %
621 28-09-2020 20:00:00 15 C 68.0000 %
622 28-09-2020 21:00:00 15 C 68.0000 %
623 28-09-2020 22:00:00 15 C 68.0000 %
624 28-09-2020 23:00:00 15 C 68.0000 %
625 29-09-2020 00:00:00 15 C 68.8333 %
Sensor: Nr:Datum:Temp:Feuchte:
G-T/H 626 29-09-2020 01:00:00 15 C 69.0000 %
627 29-09-2020 02:00:00 15 C 69.0000 %
628 29-09-2020 03:00:00 14.93333 C 69.0000 %
629 29-09-2020 04:00:00 14.9 C 69.5000 %
630 29-09-2020 05:00:00 14.9 C 70.0000 %
631 29-09-2020 06:00:00 14.88333 C 70.0000 %
632 29-09-2020 07:00:00 14.9 C 70.0000 %
633 29-09-2020 08:00:00 14.88333 C 70.0000 %
634 29-09-2020 09:00:00 14.9 C 70.0000 %
635 29-09-2020 10:00:00 14.9 C 70.0000 %
636 29-09-2020 11:00:00 14.9 C 70.0000 %
637 29-09-2020 12:00:00 14.95 C 70.0000 %
638 29-09-2020 13:00:00 14.95 C 70.1667 %
639 29-09-2020 14:00:00 15 C 70.0000 %
640 29-09-2020 15:00:00 15.01667 C 70.0000 %
641 29-09-2020 16:00:00 15.1 C 70.0000 %
642 29-09-2020 17:00:00 15.1 C 70.0000 %
643 29-09-2020 18:00:00 15.1 C 70.0000 %
644 29-09-2020 19:00:00 15.1 C 70.0000 %
645 29-09-2020 20:00:00 15.1 C 70.0000 %
646 29-09-2020 21:00:00 15.1 C 70.0000 %
647 29-09-2020 22:00:00 15.08333 C 70.0000 %
648 29-09-2020 23:00:00 15.03333 C 70.0000 %
649 30-09-2020 00:00:00 15 C 70.0000 %
650 30-09-2020 01:00:00 15 C 70.0000 %
Sensor: Nr:Datum:Temp:Feuchte:
G-T/H 651 30-09-2020 02:00:00 14.98333 C 70.1667 %
652 30-09-2020 03:00:00 14.93333 C 70.6667 %
653 30-09-2020 04:00:00 14.9 C 71.0000 %
654 30-09-2020 05:00:00 14.9 C 71.0000 %
655 30-09-2020 06:00:00 14.9 C 71.0000 %
656 30-09-2020 07:00:00 14.9 C 71.0000 %
657 30-09-2020 08:00:00 14.9 C 71.5000 %
658 30-09-2020 09:00:00 14.9 C 72.0000 %
659 30-09-2020 10:00:00 14.95 C 71.5000 %
660 30-09-2020 11:00:00 15 C 71.0000 %
661 30-09-2020 12:00:00 15.08333 C 71.0000 %
662 30-09-2020 13:00:00 15.18333 C 71.0000 %
663 30-09-2020 14:00:00 15.26667 C 71.0000 %
664 30-09-2020 15:00:00 15.4 C 71.0000 %
665 30-09-2020 16:00:00 15.46667 C 71.0000 %
666 30-09-2020 17:00:00 15.56667 C 71.0000 %
667 30-09-2020 18:00:00 15.61667 C 71.0000 %
668 30-09-2020 19:00:00 15.66667 C 71.0000 %
669 30-09-2020 20:00:00 15.7 C 71.0000 %
670 30-09-2020 21:00:00 15.8 C 71.0000 %
671 30-09-2020 22:00:00 15.8 C 71.0000 %
672 30-09-2020 23:00:00 15.78333 C 71.0000 %
673 01-10-2020 00:00:00 15.71667 C 71.0000 %
674 01-10-2020 01:00:00 15.65 C 71.0000 %
675 01-10-2020 02:00:00 15.6 C 71.0000 %
Sensor: Nr:Datum:Temp:Feuchte:
G-T/H 676 01-10-2020 03:00:00 15.56667 C 71.0000 %
677 01-10-2020 04:00:00 15.5 C 71.0000 %
678 01-10-2020 05:00:00 15.43333 C 71.0000 %
679 01-10-2020 06:00:00 15.36667 C 71.0000 %
680 01-10-2020 07:00:00 15.3 C 70.3333 %
681 01-10-2020 08:00:00 15.16667 C 70.0000 %
682 01-10-2020 09:00:00 15.2 C 70.0000 %
683 01-10-2020 10:00:00 15.2 C 70.6667 %
684 01-10-2020 11:00:00 15.2 C 71.0000 %
685 01-10-2020 12:00:00 15.2 C 71.0000 %
686 01-10-2020 13:00:00 15.28333 C 71.0000 %
687 01-10-2020 14:00:00 15.31667 C 71.0000 %
688 01-10-2020 15:00:00 15.38333 C 71.0000 %
689 01-10-2020 16:00:00 15.41667 C 71.0000 %
690 01-10-2020 17:00:00 15.46667 C 71.0000 %
691 01-10-2020 18:00:00 15.55 C 71.0000 %
692 01-10-2020 19:00:00 15.53333 C 71.0000 %
693 01-10-2020 20:00:00 15.56667 C 71.0000 %
694 01-10-2020 21:00:00 15.6 C 71.0000 %
695 01-10-2020 22:00:00 15.51667 C 71.0000 %
696 01-10-2020 23:00:00 15.5 C 71.0000 %

Maximal/Minimal-Werte vom 03.09.2020 - 01.10.2020

Sensor Min Max Avg
Temp
(Aussen-T/F)
6.5 °C
21-09-2020  07:46:18
39.2 °C
15-09-2020  16:46:17
15.81 °C
Feuchte
(Aussen-T/F)
20 %
04-09-2020  16:55:17
47 %
07-09-2020  07:15:18
33.99 %
Temp
(G-T/H)
13.8 °C
20-09-2020  08:36:18
24.6 °C
14-09-2020  18:05:17
17.42 °C
Feuchte
(G-T/H)
34 %
19-09-2020  18:36:17
72 %
03-09-2020  19:15:17
60.37 %

Die Daten stammen von einer Davis Vantage Pro 2 Wetter-Station und werden unter Linux mit der Software wview2wettercgi und aufbereitet. Alle Angaben erfolgen ohne Gewähr für ihre Vollständigkeit oder Richtigkeit.
Kontakt: Rainer Krienke krienke@uni-koblenz.de . Meine Webseiten an der Uni Koblenz oder privat.
Version: $Revision: 0.78 $